Puerto Banus, Marbella

>

This is an optional block (switch it off / on) in the settings - file ($SITE['banners'] = false;)

You can display ads, any other important text or photo’s using text / html or PHP code.

You can place one or more at the top and or bottom and it can all be different for content / size .



Meteosat more information blitzortung!


Radar lluvias  rain snow radar


Visita nuestra red de sitios de meteo:

Documentation for the template used

MeteoibericaRed estaciones Meteorologicas

MeteoclimaticRed estaciones Meteorologicas



Sin Advertencias climatologicas .En este momento tenemos Nivel Verde.    No hay Alarmas

Pagina Historial Weather Underground texto

Diario Resumen Diciembre 27, 2017 Unidades:  Tanto    impérial   Métrico
« Anterior Dia
Siguiente Dia »
Diario Semana Mensual Anual Personalizada
  Maxima: Minima: Media:
Temperatura: 66 °F /  18.9 °C 57.6 °F /  14.2 °C 61.5 °F /  16.4 °C
Punto de rocío: 57.4 °F /  14.1 °C 47.1 °F /  8.4 °C 51.6 °F /  10.9 °C
Humedad: 91 % 56 % 71 %
Velocidad del Viento: 35.7 mph /  57.4 km/h - 18.8 mph /  30.2 km/h
Ráfagas de viento: 35.7 mph /  57.4 km/h - -
Viento:- - West
Pression baro: 30.1 in /  1020.2 hPa 29.9 in /  1014.1 hPa -
Précipitaciones: 0 in /  0.0 mm    
Historical Graphs
 
 
Datos de tabla para Diciembre 27, 2017
Tiempo Temperatura Punto de rocío Pression baro Viento Velocidad del Viento Ráfagas de viento Humedad Las precipitaciones Rate ( Hora )
00:02 59.5 °F /  15.3 °C 49.6 °F /  9.8 °C 30.1 in /  1020.2 hPa West 11.5 mph /  18.5 km/h 11.5 mph /  18.5 km/h 70 % 0 in /  0.0 mm
00:07 59.2 °F /  15.1 °C 49.5 °F /  9.7 °C 30.1 in /  1020.2 hPa West 6.9 mph /  11.1 km/h 6.9 mph /  11.1 km/h 70 % 0 in /  0.0 mm
00:12 59.2 °F /  15.1 °C 48.9 °F /  9.4 °C 30.1 in /  1019.9 hPa West 10.4 mph /  16.7 km/h 10.4 mph /  16.7 km/h 69 % 0 in /  0.0 mm
00:13 59.2 °F /  15.1 °C 48.9 °F /  9.4 °C 30.1 in /  1019.9 hPa WSW 10 mph /  16.1 km/h 10 mph /  16.1 km/h 69 % 0 in /  0.0 mm
00:18 59.5 °F /  15.3 °C 48.9 °F /  9.4 °C 30.1 in /  1019.9 hPa WSW 10 mph /  16.1 km/h 10 mph /  16.1 km/h 68 % 0 in /  0.0 mm
00:22 59.5 °F /  15.3 °C 48.9 °F /  9.4 °C 30.1 in /  1019.9 hPa WSW 5.8 mph /  9.3 km/h 5.8 mph /  9.3 km/h 68 % 0 in /  0.0 mm
00:24 59.5 °F /  15.3 °C 48.9 °F /  9.4 °C 30.1 in /  1019.9 hPa SW 8.1 mph /  13.0 km/h 8.1 mph /  13.0 km/h 68 % 0 in /  0.0 mm
00:27 59.7 °F /  15.4 °C 48.7 °F /  9.3 °C 30.1 in /  1019.9 hPa WSW 9.2 mph /  14.8 km/h 9.2 mph /  14.8 km/h 67 % 0 in /  0.0 mm
00:29 59.7 °F /  15.4 °C 48.7 °F /  9.3 °C 30.1 in /  1019.9 hPa WSW 9.2 mph /  14.8 km/h 9.2 mph /  14.8 km/h 67 % 0 in /  0.0 mm
00:32 59.9 °F /  15.5 °C 49.6 °F /  9.8 °C 30.1 in /  1019.9 hPa WSW 9.2 mph /  14.8 km/h 9.2 mph /  14.8 km/h 69 % 0 in /  0.0 mm
00:34 59.9 °F /  15.5 °C 49.6 °F /  9.8 °C 30.1 in /  1019.9 hPa West 6 mph /  9.7 km/h 6 mph /  9.7 km/h 69 % 0 in /  0.0 mm
00:38 59.7 °F /  15.4 °C 49.3 °F /  9.6 °C 30.1 in /  1019.5 hPa South 9 mph /  14.5 km/h 9 mph /  14.5 km/h 68 % 0 in /  0.0 mm
00:41 59.9 °F /  15.5 °C 48 °F /  8.9 °C 30.1 in /  1019.5 hPa SE 11.5 mph /  18.5 km/h 11.5 mph /  18.5 km/h 65 % 0 in /  0.0 mm
00:43 60.1 °F /  15.6 °C 48.2 °F /  9.0 °C 30.1 in /  1019.5 hPa South 8.1 mph /  13.0 km/h 8.1 mph /  13.0 km/h 65 % 0 in /  0.0 mm
00:48 60.3 °F /  15.7 °C 49.3 °F /  9.6 °C 30.1 in /  1019.5 hPa SW 5.8 mph /  9.3 km/h 5.8 mph /  9.3 km/h 67 % 0 in /  0.0 mm
00:49 60.3 °F /  15.7 °C 49.3 °F /  9.6 °C 30.1 in /  1019.2 hPa SW 5.8 mph /  9.3 km/h 5.8 mph /  9.3 km/h 67 % 0 in /  0.0 mm
00:51 60.3 °F /  15.7 °C 49.3 °F /  9.6 °C 30.1 in /  1019.2 hPa SW 4.6 mph /  7.4 km/h 4.6 mph /  7.4 km/h 67 % 0 in /  0.0 mm
00:55 60.1 °F /  15.6 °C 49.5 °F /  9.7 °C 30.1 in /  1019.2 hPa WSW 3.5 mph /  5.6 km/h 3.5 mph /  5.6 km/h 68 % 0 in /  0.0 mm
01:00 60.1 °F /  15.6 °C 48.9 °F /  9.4 °C 30.1 in /  1019.2 hPa WSW 9.2 mph /  14.8 km/h 9.2 mph /  14.8 km/h 67 % 0 in /  0.0 mm
01:05 60.1 °F /  15.6 °C 48.6 °F /  9.2 °C 30.1 in /  1019.5 hPa WNW 4.6 mph /  7.4 km/h 4.6 mph /  7.4 km/h 66 % 0 in /  0.0 mm
01:10 60.1 °F /  15.6 °C 48.2 °F /  9.0 °C 30.1 in /  1019.2 hPa West 12.7 mph /  20.4 km/h 12.7 mph /  20.4 km/h 65 % 0 in /  0.0 mm
01:14 60.1 °F /  15.6 °C 47.8 °F /  8.8 °C 30.1 in /  1019.2 hPa NW 10.4 mph /  16.7 km/h 10.4 mph /  16.7 km/h 64 % 0 in /  0.0 mm
01:16 60.1 °F /  15.6 °C 47.8 °F /  8.8 °C 30.1 in /  1019.2 hPa WSW 4.6 mph /  7.4 km/h 4.6 mph /  7.4 km/h 64 % 0 in /  0.0 mm
01:21 60.3 °F /  15.7 °C 48 °F /  8.9 °C 30.1 in /  1019.2 hPa West 7 mph /  11.3 km/h 7 mph /  11.3 km/h 64 % 0 in /  0.0 mm
01:22 60.3 °F /  15.7 °C 48 °F /  8.9 °C 30.1 in /  1018.8 hPa West 6.9 mph /  11.1 km/h 6.9 mph /  11.1 km/h 64 % 0 in /  0.0 mm
01:25 60.3 °F /  15.7 °C 48 °F /  8.9 °C 30.1 in /  1019.2 hPa West 8.1 mph /  13.0 km/h 8.1 mph /  13.0 km/h 64 % 0 in /  0.0 mm
01:29 60.3 °F /  15.7 °C 48.4 °F /  9.1 °C 30.1 in /  1019.2 hPa WNW 4 mph /  6.4 km/h 4 mph /  6.4 km/h 65 % 0 in /  0.0 mm
01:34 60.3 °F /  15.7 °C 48.4 °F /  9.1 °C 30.1 in /  1018.8 hPa NW 6.9 mph /  11.1 km/h 6.9 mph /  11.1 km/h 65 % 0 in /  0.0 mm
01:39 60.3 °F /  15.7 °C 48.4 °F /  9.1 °C 30.1 in /  1018.8 hPa West 9.2 mph /  14.8 km/h 9.2 mph /  14.8 km/h 65 % 0 in /  0.0 mm
01:40 60.3 °F /  15.7 °C 48.4 °F /  9.1 °C 30.1 in /  1018.8 hPa West 9.2 mph /  14.8 km/h 9.2 mph /  14.8 km/h 65 % 0 in /  0.0 mm
01:45 60.3 °F /  15.7 °C 48.7 °F /  9.3 °C 30.1 in /  1018.5 hPa West 5.8 mph /  9.3 km/h 5.8 mph /  9.3 km/h 66 % 0 in /  0.0 mm
01:50 60.3 °F /  15.7 °C 48.7 °F /  9.3 °C 30.1 in /  1018.5 hPa WNW 5 mph /  8.0 km/h 8 mph /  12.9 km/h 66 % 0 in /  0.0 mm
01:54 60.1 °F /  15.6 °C 48.9 °F /  9.4 °C 30.1 in /  1018.5 hPa WNW 11.5 mph /  18.5 km/h 11.5 mph /  18.5 km/h 67 % 0 in /  0.0 mm
01:56 60.1 °F /  15.6 °C 48.9 °F /  9.4 °C 30.1 in /  1018.5 hPa West 10.4 mph /  16.7 km/h 10.4 mph /  16.7 km/h 67 % 0 in /  0.0 mm
02:00 59.9 °F /  15.5 °C 49.3 °F /  9.6 °C 30.1 in /  1018.5 hPa WNW 6 mph /  9.7 km/h 14 mph /  22.5 km/h 68 % 0 in /  0.0 mm
02:02 59.9 °F /  15.5 °C 49.3 °F /  9.6 °C 30.1 in /  1018.5 hPa West 11.5 mph /  18.5 km/h 11.5 mph /  18.5 km/h 68 % 0 in /  0.0 mm
02:07 59.7 °F /  15.4 °C 49.3 °F /  9.6 °C 30.1 in /  1018.2 hPa WNW 13 mph /  20.9 km/h 13 mph /  20.9 km/h 68 % 0 in /  0.0 mm
02:12 59.7 °F /  15.4 °C 49.3 °F /  9.6 °C 30.1 in /  1018.2 hPa WNW 9.2 mph /  14.8 km/h 9.2 mph /  14.8 km/h 68 % 0 in /  0.0 mm
02:13 59.7 °F /  15.4 °C 49.3 °F /  9.6 °C 30.1 in /  1018.2 hPa West 10.4 mph /  16.7 km/h 10.4 mph /  16.7 km/h 68 % 0 in /  0.0 mm
02:18 59.7 °F /  15.4 °C 49.3 °F /  9.6 °C 30.1 in /  1018.2 hPa WNW 12.7 mph /  20.4 km/h 12.7 mph /  20.4 km/h 68 % 0 in /  0.0 mm
02:21 59.7 °F /  15.4 °C 49.6 °F /  9.8 °C 30.1 in /  1018.2 hPa WSW 9.2 mph /  14.8 km/h 9.2 mph /  14.8 km/h 69 % 0 in /  0.0 mm
02:23 59.7 °F /  15.4 °C 49.5 °F /  9.7 °C 30.1 in /  1017.8 hPa West 11.5 mph /  18.5 km/h 11.5 mph /  18.5 km/h 69 % 0 in /  0.0 mm
02:27 59.5 °F /  15.3 °C 49.8 °F /  9.9 °C 30.1 in /  1017.8 hPa West 17 mph /  27.4 km/h 17 mph /  27.4 km/h 70 % 0 in /  0.0 mm
02:30 59.5 °F /  15.3 °C 49.8 °F /  9.9 °C 30.1 in /  1017.8 hPa West 12 mph /  19.3 km/h 12 mph /  19.3 km/h 70 % 0 in /  0.0 mm
02:32 59.5 °F /  15.3 °C 50.2 °F /  10.1 °C 30.1 in /  1017.5 hPa West 13 mph /  20.9 km/h 13 mph /  20.9 km/h 71 % 0 in /  0.0 mm
02:37 59.4 °F /  15.2 °C 50.4 °F /  10.2 °C 30.1 in /  1017.5 hPa West 11.5 mph /  18.5 km/h 11.5 mph /  18.5 km/h 72 % 0 in /  0.0 mm
02:39 59.4 °F /  15.2 °C 50.4 °F /  10.2 °C 30.1 in /  1017.5 hPa WSW 17.3 mph /  27.8 km/h 17.3 mph /  27.8 km/h 72 % 0 in /  0.0 mm
02:44 59.2 °F /  15.1 °C 50.5 °F /  10.3 °C 30.1 in /  1017.5 hPa West 17.3 mph /  27.8 km/h 17.3 mph /  27.8 km/h 73 % 0 in /  0.0 mm
02:45 59.2 °F /  15.1 °C 50.7 °F /  10.4 °C 30.1 in /  1017.5 hPa WSW 12.7 mph /  20.4 km/h 12.7 mph /  20.4 km/h 74 % 0 in /  0.0 mm
02:50 59.2 °F /  15.1 °C 50.7 °F /  10.4 °C 30.1 in /  1017.5 hPa West 16.1 mph /  25.9 km/h 16.1 mph /  25.9 km/h 74 % 0 in /  0.0 mm
02:55 59.2 °F /  15.1 °C 50.7 °F /  10.4 °C 30 in /  1017.2 hPa West 16.1 mph /  25.9 km/h 16.1 mph /  25.9 km/h 74 % 0 in /  0.0 mm
02:57 59.2 °F /  15.1 °C 50.7 °F /  10.4 °C 30.1 in /  1017.5 hPa West 13.8 mph /  22.2 km/h 13.8 mph /  22.2 km/h 74 % 0 in /  0.0 mm
03:02 59.2 °F /  15.1 °C 50.9 °F /  10.5 °C 30 in /  1017.2 hPa WSW 17.3 mph /  27.8 km/h 17.3 mph /  27.8 km/h 74 % 0 in /  0.0 mm
03:03 59.2 °F /  15.1 °C 50.9 °F /  10.5 °C 30 in /  1017.2 hPa West 17.3 mph /  27.8 km/h 17.3 mph /  27.8 km/h 74 % 0 in /  0.0 mm
03:08 59.4 °F /  15.2 °C 51.4 °F /  10.8 °C 30.1 in /  1017.5 hPa WNW 13 mph /  20.9 km/h 13 mph /  20.9 km/h 75 % 0 in /  0.0 mm
03:11 59.4 °F /  15.2 °C 51.1 °F /  10.6 °C 30 in /  1017.2 hPa West 12.7 mph /  20.4 km/h 12.7 mph /  20.4 km/h 74 % 0 in /  0.0 mm
03:13 59.4 °F /  15.2 °C 51.1 °F /  10.6 °C 30 in /  1017.2 hPa West 16.1 mph /  25.9 km/h 16.1 mph /  25.9 km/h 74 % 0 in /  0.0 mm
03:17 59.4 °F /  15.2 °C 51.1 °F /  10.6 °C 30 in /  1016.8 hPa West 12.7 mph /  20.4 km/h 12.7 mph /  20.4 km/h 74 % 0 in /  0.0 mm
03:18 59.4 °F /  15.2 °C 51.1 °F /  10.6 °C 30 in /  1016.8 hPa West 17.3 mph /  27.8 km/h 17.3 mph /  27.8 km/h 74 % 0 in /  0.0 mm
03:23 59.5 °F /  15.3 °C 51.3 °F /  10.7 °C 30 in /  1016.5 hPa West 20.7 mph /  33.3 km/h 20.7 mph /  33.3 km/h 74 % 0 in /  0.0 mm
03:28 59.5 °F /  15.3 °C 51.3 °F /  10.7 °C 30 in /  1016.8 hPa West 20.7 mph /  33.3 km/h 20.7 mph /  33.3 km/h 74 % 0 in /  0.0 mm
03:29 59.5 °F /  15.3 °C 51.3 °F /  10.7 °C 30 in /  1016.8 hPa West 20.7 mph /  33.3 km/h 20.7 mph /  33.3 km/h 74 % 0 in /  0.0 mm
03:33 59.5 °F /  15.3 °C 51.3 °F /  10.7 °C 30 in /  1016.8 hPa WSW 19.6 mph /  31.5 km/h 19.6 mph /  31.5 km/h 74 % 0 in /  0.0 mm
03:34 59.5 °F /  15.3 °C 51.3 °F /  10.7 °C 30 in /  1016.8 hPa West 19.6 mph /  31.5 km/h 19.6 mph /  31.5 km/h 74 % 0 in /  0.0 mm
03:39 59.7 °F /  15.4 °C 51.4 °F /  10.8 °C 30 in /  1016.8 hPa West 20.7 mph /  33.3 km/h 20.7 mph /  33.3 km/h 74 % 0 in /  0.0 mm
03:40 59.7 °F /  15.4 °C 51.4 °F /  10.8 °C 30 in /  1016.8 hPa West 20.7 mph /  33.3 km/h 20.7 mph /  33.3 km/h 74 % 0 in /  0.0 mm
03:45 59.7 °F /  15.4 °C 51.4 °F /  10.8 °C 30 in /  1016.5 hPa West 19.6 mph /  31.5 km/h 19.6 mph /  31.5 km/h 74 % 0 in /  0.0 mm
03:50 59.7 °F /  15.4 °C 51.4 °F /  10.8 °C 30 in /  1016.5 hPa West 26.5 mph /  42.6 km/h 26.5 mph /  42.6 km/h 74 % 0 in /  0.0 mm
03:53 59.7 °F /  15.4 °C 51.4 °F /  10.8 °C 30 in /  1016.5 hPa WSW 26.5 mph /  42.6 km/h 26.5 mph /  42.6 km/h 74 % 0 in /  0.0 mm
03:57 59.9 °F /  15.5 °C 52 °F /  11.1 °C 30 in /  1016.5 hPa West 23 mph /  37.0 km/h 23 mph /  37.0 km/h 75 % 0 in /  0.0 mm
04:00 59.7 °F /  15.4 °C 52 °F /  11.1 °C 30 in /  1016.5 hPa WSW 24.2 mph /  38.9 km/h 24.2 mph /  38.9 km/h 75 % 0 in /  0.0 mm
04:03 59.7 °F /  15.4 °C 52 °F /  11.1 °C 30 in /  1016.5 hPa WSW 28.8 mph /  46.3 km/h 28.8 mph /  46.3 km/h 75 % 0 in /  0.0 mm
04:07 59.7 °F /  15.4 °C 52.2 °F /  11.2 °C 30 in /  1016.1 hPa West 26.5 mph /  42.6 km/h 26.5 mph /  42.6 km/h 76 % 0 in /  0.0 mm
04:08 59.7 °F /  15.4 °C 52.2 °F /  11.2 °C 30 in /  1016.5 hPa WSW 28 mph /  45.1 km/h 28 mph /  45.1 km/h 76 % 0 in /  0.0 mm
04:13 59.5 °F /  15.3 °C 52 °F /  11.1 °C 30 in /  1016.5 hPa West 24.2 mph /  38.9 km/h 24.2 mph /  38.9 km/h 76 % 0 in /  0.0 mm
04:18 59.5 °F /  15.3 °C 52.3 °F /  11.3 °C 30 in /  1016.1 hPa West 29 mph /  46.7 km/h 29 mph /  46.7 km/h 77 % 0 in /  0.0 mm
04:22 59.5 °F /  15.3 °C 52.5 °F /  11.4 °C 30 in /  1016.5 hPa West 24.2 mph /  38.9 km/h 24.2 mph /  38.9 km/h 78 % 0 in /  0.0 mm
04:24 59.4 °F /  15.2 °C 52.5 °F /  11.4 °C 30 in /  1016.5 hPa West 31.1 mph /  50.0 km/h 31.1 mph /  50.0 km/h 78 % 0 in /  0.0 mm
04:28 59.4 °F /  15.2 °C 52.3 °F /  11.3 °C 30 in /  1016.5 hPa West 26.5 mph /  42.6 km/h 26.5 mph /  42.6 km/h 78 % 0 in /  0.0 mm
04:31 59.2 °F /  15.1 °C 52.7 °F /  11.5 °C 30 in /  1016.5 hPa WSW 34.5 mph /  55.5 km/h 34.5 mph /  55.5 km/h 79 % 0 in /  0.0 mm
04:34 58.8 °F /  14.9 °C 52.7 °F /  11.5 °C 30 in /  1016.5 hPa West 33.4 mph /  53.7 km/h 33.4 mph /  53.7 km/h 80 % 0 in /  0.0 mm
04:39 58.6 °F /  14.8 °C 52.9 °F /  11.6 °C 30 in /  1016.1 hPa West 25.3 mph /  40.7 km/h 25.3 mph /  40.7 km/h 81 % 0 in /  0.0 mm
04:40 58.8 °F /  14.9 °C 53.1 °F /  11.7 °C 30 in /  1016.5 hPa WSW 25.3 mph /  40.7 km/h 25.3 mph /  40.7 km/h 81 % 0 in /  0.0 mm
04:41 58.6 °F /  14.8 °C 52.9 °F /  11.6 °C 30 in /  1016.1 hPa WSW 29.9 mph /  48.1 km/h 29.9 mph /  48.1 km/h 81 % 0 in /  0.0 mm
04:46 58.6 °F /  14.8 °C 53.1 °F /  11.7 °C 30 in /  1016.1 hPa West 32.2 mph /  51.8 km/h 32.2 mph /  51.8 km/h 82 % 0 in /  0.0 mm
04:47 58.6 °F /  14.8 °C 53.1 °F /  11.7 °C 30 in /  1016.1 hPa WSW 33 mph /  53.1 km/h 33 mph /  53.1 km/h 82 % 0 in /  0.0 mm
04:52 58.5 °F /  14.7 °C 53.2 °F /  11.8 °C 30 in /  1016.1 hPa WSW 34.5 mph /  55.5 km/h 34.5 mph /  55.5 km/h 83 % 0 in /  0.0 mm
04:53 58.5 °F /  14.7 °C 53.2 °F /  11.8 °C 30 in /  1016.1 hPa WSW 34.5 mph /  55.5 km/h 34.5 mph /  55.5 km/h 83 % 0 in /  0.0 mm
04:58 58.3 °F /  14.6 °C 53.4 °F /  11.9 °C 30 in /  1015.8 hPa WSW 31.1 mph /  50.0 km/h 31.1 mph /  50.0 km/h 84 % 0 in /  0.0 mm
05:04 57.9 °F /  14.4 °C 53.8 °F /  12.1 °C 30 in /  1015.8 hPa WSW 32.2 mph /  51.8 km/h 32.2 mph /  51.8 km/h 86 % 0 in /  0.0 mm
05:06 57.7 °F /  14.3 °C 53.4 °F /  11.9 °C 30 in /  1015.8 hPa WSW 26.5 mph /  42.6 km/h 26.5 mph /  42.6 km/h 86 % 0 in /  0.0 mm
05:09 57.6 °F /  14.2 °C 53.4 °F /  11.9 °C 30 in /  1015.8 hPa WSW 29.9 mph /  48.1 km/h 29.9 mph /  48.1 km/h 86 % 0 in /  0.0 mm
05:14 57.6 °F /  14.2 °C 53.8 °F /  12.1 °C 30 in /  1015.8 hPa WSW 26.5 mph /  42.6 km/h 26.5 mph /  42.6 km/h 87 % 0 in /  0.0 mm
05:16 57.6 °F /  14.2 °C 53.8 °F /  12.1 °C 30 in /  1015.8 hPa WSW 27.6 mph /  44.4 km/h 27.6 mph /  44.4 km/h 87 % 0 in /  0.0 mm
05:17 57.6 °F /  14.2 °C 53.8 °F /  12.1 °C 30 in /  1016.1 hPa WSW 29 mph /  46.7 km/h 29 mph /  46.7 km/h 87 % 0 in /  0.0 mm
05:22 57.6 °F /  14.2 °C 54 °F /  12.2 °C 30 in /  1015.8 hPa WSW 32.2 mph /  51.8 km/h 32.2 mph /  51.8 km/h 88 % 0 in /  0.0 mm
05:24 57.6 °F /  14.2 °C 54 °F /  12.2 °C 30 in /  1015.8 hPa West 26.5 mph /  42.6 km/h 26.5 mph /  42.6 km/h 88 % 0 in /  0.0 mm
05:25 57.6 °F /  14.2 °C 54 °F /  12.2 °C 30 in /  1015.8 hPa SW 26.5 mph /  42.6 km/h 26.5 mph /  42.6 km/h 88 % 0 in /  0.0 mm
05:30 57.6 °F /  14.2 °C 54.3 °F /  12.4 °C 30 in /  1015.5 hPa WSW 26.5 mph /  42.6 km/h 26.5 mph /  42.6 km/h 89 % 0 in /  0.0 mm
05:32 57.6 °F /  14.2 °C 54.3 °F /  12.4 °C 30 in /  1015.5 hPa WSW 27.6 mph /  44.4 km/h 27.6 mph /  44.4 km/h 89 % 0 in /  0.0 mm
05:35 57.6 °F /  14.2 °C 54.3 °F /  12.4 °C 30 in /  1015.1 hPa West 27.6 mph /  44.4 km/h 27.6 mph /  44.4 km/h 89 % 0 in /  0.0 mm
05:38 57.7 °F /  14.3 °C 54.5 °F /  12.5 °C 30 in /  1015.1 hPa WSW 28.8 mph /  46.3 km/h 28.8 mph /  46.3 km/h 89 % 0 in /  0.0 mm
05:40 57.7 °F /  14.3 °C 54.7 °F /  12.6 °C 30 in /  1015.5 hPa WSW 31.1 mph /  50.0 km/h 31.1 mph /  50.0 km/h 89 % 0 in /  0.0 mm
05:45 57.7 °F /  14.3 °C 54.5 °F /  12.5 °C 30 in /  1015.1 hPa WSW 31 mph /  49.9 km/h 31 mph /  49.9 km/h 89 % 0 in /  0.0 mm
05:46 57.7 °F /  14.3 °C 54.7 °F /  12.6 °C 30 in /  1015.1 hPa WSW 27.6 mph /  44.4 km/h 27.6 mph /  44.4 km/h 89 % 0 in /  0.0 mm
05:47 57.7 °F /  14.3 °C 54.7 °F /  12.6 °C 30 in /  1014.8 hPa WSW 31.1 mph /  50.0 km/h 31.1 mph /  50.0 km/h 89 % 0 in /  0.0 mm
05:51 57.7 °F /  14.3 °C 54.7 °F /  12.6 °C 30 in /  1015.1 hPa WSW 32.2 mph /  51.8 km/h 32.2 mph /  51.8 km/h 89 % 0 in /  0.0 mm
05:54 57.7 °F /  14.3 °C 54.7 °F /  12.6 °C 30 in /  1014.8 hPa WSW 29.9 mph /  48.1 km/h 29.9 mph /  48.1 km/h 89 % 0 in /  0.0 mm
05:57 57.9 °F /  14.4 °C 54.7 °F /  12.6 °C 30 in /  1014.8 hPa WSW 34.5 mph /  55.5 km/h 34.5 mph /  55.5 km/h 89 % 0 in /  0.0 mm
06:00 57.9 °F /  14.4 °C 55 °F /  12.8 °C 30 in /  1014.8 hPa WSW 32.2 mph /  51.8 km/h 32.2 mph /  51.8 km/h 90 % 0 in /  0.0 mm
06:02 57.9 °F /  14.4 °C 55 °F /  12.8 °C 30 in /  1014.4 hPa WSW 32.2 mph /  51.8 km/h 32.2 mph /  51.8 km/h 90 % 0 in /  0.0 mm
06:07 57.9 °F /  14.4 °C 55 °F /  12.8 °C 30 in /  1014.8 hPa WSW 26.5 mph /  42.6 km/h 26.5 mph /  42.6 km/h 90 % 0 in /  0.0 mm
06:09 57.9 °F /  14.4 °C 55 °F /  12.8 °C 30 in /  1014.4 hPa WSW 31.1 mph /  50.0 km/h 31.1 mph /  50.0 km/h 90 % 0 in /  0.0 mm
06:14 58.1 °F /  14.5 °C 55.2 °F /  12.9 °C 30 in /  1014.4 hPa WSW 26.5 mph /  42.6 km/h 26.5 mph /  42.6 km/h 90 % 0 in /  0.0 mm
06:15 58.1 °F /  14.5 °C 55.2 °F /  12.9 °C 30 in /  1014.4 hPa WSW 27.6 mph /  44.4 km/h 27.6 mph /  44.4 km/h 90 % 0 in /  0.0 mm
06:16 58.1 °F /  14.5 °C 55.2 °F /  12.9 °C 30 in /  1014.4 hPa WSW 27.6 mph /  44.4 km/h 27.6 mph /  44.4 km/h 90 % 0 in /  0.0 mm
06:21 58.3 °F /  14.6 °C 55.4 °F /  13.0 °C 30 in /  1014.8 hPa WSW 26.5 mph /  42.6 km/h 26.5 mph /  42.6 km/h 90 % 0 in /  0.0 mm
06:22 58.5 °F /  14.7 °C 55.6 °F /  13.1 °C 30 in /  1014.8 hPa WSW 27.6 mph /  44.4 km/h 27.6 mph /  44.4 km/h 90 % 0 in /  0.0 mm
06:25 58.5 °F /  14.7 °C 55.6 °F /  13.1 °C 30 in /  1014.4 hPa WSW 28.8 mph /  46.3 km/h 28.8 mph /  46.3 km/h 90 % 0 in /  0.0 mm
06:27 58.5 °F /  14.7 °C 55.2 °F /  12.9 °C 30 in /  1014.8 hPa WSW 26.5 mph /  42.6 km/h 26.5 mph /  42.6 km/h 89 % 0 in /  0.0 mm
06:32 58.6 °F /  14.8 °C 55.4 °F /  13.0 °C 30 in /  1014.8 hPa WSW 32.2 mph /  51.8 km/h 32.2 mph /  51.8 km/h 89 % 0 in /  0.0 mm
06:33 58.6 °F /  14.8 °C 55.4 °F /  13.0 °C 30 in /  1014.8 hPa WSW 28 mph /  45.1 km/h 28 mph /  45.1 km/h 89 % 0 in /  0.0 mm
06:38 58.6 °F /  14.8 °C 55.4 °F /  13.0 °C 30 in /  1014.8 hPa WSW 26.5 mph /  42.6 km/h 26.5 mph /  42.6 km/h 89 % 0 in /  0.0 mm
06:39 58.6 °F /  14.8 °C 55.4 °F /  13.0 °C 30 in /  1014.8 hPa West 26.5 mph /  42.6 km/h 26.5 mph /  42.6 km/h 89 % 0 in /  0.0 mm
06:43 58.6 °F /  14.8 °C 55.4 °F /  13.0 °C 30 in /  1014.4 hPa WSW 28 mph /  45.1 km/h 28 mph /  45.1 km/h 89 % 0 in /  0.0 mm
06:44 58.6 °F /  14.8 °C 55.4 °F /  13.0 °C 30 in /  1015.1 hPa WSW 27.6 mph /  44.4 km/h 27.6 mph /  44.4 km/h 89 % 0 in /  0.0 mm
06:48 58.6 °F /  14.8 °C 55.8 °F /  13.2 °C 30 in /  1014.8 hPa WSW 26.5 mph /  42.6 km/h 26.5 mph /  42.6 km/h 90 % 0 in /  0.0 mm
06:53 58.6 °F /  14.8 °C 55.8 °F /  13.2 °C 30 in /  1014.8 hPa WSW 26.5 mph /  42.6 km/h 26.5 mph /  42.6 km/h 90 % 0 in /  0.0 mm
06:54 58.6 °F /  14.8 °C 55.8 °F /  13.2 °C 30 in /  1014.4 hPa WSW 26.5 mph /  42.6 km/h 26.5 mph /  42.6 km/h 90 % 0 in /  0.0 mm
06:59 58.6 °F /  14.8 °C 55.8 °F /  13.2 °C 30 in /  1014.4 hPa WSW 31.1 mph /  50.0 km/h 31.1 mph /  50.0 km/h 90 % 0 in /  0.0 mm
07:00 58.6 °F /  14.8 °C 55.8 °F /  13.2 °C 30 in /  1014.4 hPa WSW 27.6 mph /  44.4 km/h 27.6 mph /  44.4 km/h 90 % 0 in /  0.0 mm
07:05 58.8 °F /  14.9 °C 55.9 °F /  13.3 °C 30 in /  1014.8 hPa WSW 29.9 mph /  48.1 km/h 29.9 mph /  48.1 km/h 90 % 0 in /  0.0 mm
07:07 58.8 °F /  14.9 °C 55.9 °F /  13.3 °C 30 in /  1014.8 hPa WSW 26.5 mph /  42.6 km/h 26.5 mph /  42.6 km/h 90 % 0 in /  0.0 mm
07:09 59 °F /  15.0 °C 56.1 °F /  13.4 °C 30 in /  1014.4 hPa WSW 25.3 mph /  40.7 km/h 25.3 mph /  40.7 km/h 90 % 0 in /  0.0 mm
07:13 59.2 °F /  15.1 °C 56.1 °F /  13.4 °C 29.9 in /  1014.1 hPa SW 24.2 mph /  38.9 km/h 24.2 mph /  38.9 km/h 90 % 0 in /  0.0 mm
07:18 59.2 °F /  15.1 °C 55.9 °F /  13.3 °C 30 in /  1014.4 hPa WSW 26.5 mph /  42.6 km/h 26.5 mph /  42.6 km/h 89 % 0 in /  0.0 mm
07:21 59.4 °F /  15.2 °C 56.1 °F /  13.4 °C 30 in /  1014.4 hPa WSW 29.9 mph /  48.1 km/h 29.9 mph /  48.1 km/h 89 % 0 in /  0.0 mm
07:25 59.2 °F /  15.1 °C 55.6 °F /  13.1 °C 29.9 in /  1014.1 hPa WSW 34.5 mph /  55.5 km/h 34.5 mph /  55.5 km/h 88 % 0 in /  0.0 mm
07:26 59.2 °F /  15.1 °C 55.6 °F /  13.1 °C 29.9 in /  1014.1 hPa SW 34.5 mph /  55.5 km/h 34.5 mph /  55.5 km/h 88 % 0 in /  0.0 mm
07:31 59.2 °F /  15.1 °C 55.9 °F /  13.3 °C 29.9 in /  1014.1 hPa SW 31.1 mph /  50.0 km/h 31.1 mph /  50.0 km/h 89 % 0 in /  0.0 mm
07:32 59.2 °F /  15.1 °C 55.9 °F /  13.3 °C 29.9 in /  1014.1 hPa WSW 31.1 mph /  50.0 km/h 31.1 mph /  50.0 km/h 89 % 0 in /  0.0 mm
07:37 59.2 °F /  15.1 °C 55.9 °F /  13.3 °C 29.9 in /  1014.1 hPa SW 28.8 mph /  46.3 km/h 28.8 mph /  46.3 km/h 89 % 0 in /  0.0 mm
07:41 59.2 °F /  15.1 °C 55.9 °F /  13.3 °C 29.9 in /  1014.1 hPa WSW 31 mph /  49.9 km/h 31 mph /  49.9 km/h 89 % 0 in /  0.0 mm
07:42 59.2 °F /  15.1 °C 55.9 °F /  13.3 °C 29.9 in /  1014.1 hPa WSW 34.5 mph /  55.5 km/h 34.5 mph /  55.5 km/h 89 % 0 in /  0.0 mm
07:48 59.2 °F /  15.1 °C 55.9 °F /  13.3 °C 29.9 in /  1014.1 hPa WSW 29.9 mph /  48.1 km/h 29.9 mph /  48.1 km/h 89 % 0 in /  0.0 mm
07:50 59.4 °F /  15.2 °C 56.1 °F /  13.4 °C 29.9 in /  1014.1 hPa WSW 32.2 mph /  51.8 km/h 32.2 mph /  51.8 km/h 89 % 0 in /  0.0 mm
07:53 59.4 °F /  15.2 °C 56.1 °F /  13.4 °C 29.9 in /  1014.1 hPa WSW 27.6 mph /  44.4 km/h 27.6 mph /  44.4 km/h 89 % 0 in /  0.0 mm
07:55 59.4 °F /  15.2 °C 56.1 °F /  13.4 °C 29.9 in /  1014.1 hPa WSW 24 mph /  38.6 km/h 31 mph /  49.9 km/h 89 % 0 in /  0.0 mm
07:59 59.4 °F /  15.2 °C 56.1 °F /  13.4 °C 29.9 in /  1014.1 hPa WSW 32.2 mph /  51.8 km/h 32.2 mph /  51.8 km/h 89 % 0 in /  0.0 mm
08:02 59.4 °F /  15.2 °C 55.8 °F /  13.2 °C 29.9 in /  1014.1 hPa WSW 28.8 mph /  46.3 km/h 28.8 mph /  46.3 km/h 88 % 0 in /  0.0 mm
08:05 59.5 °F /  15.3 °C 55.9 °F /  13.3 °C 30 in /  1014.4 hPa WSW 35.7 mph /  57.4 km/h 35.7 mph /  57.4 km/h 88 % 0 in /  0.0 mm
08:08 59.5 °F /  15.3 °C 55.9 °F /  13.3 °C 29.9 in /  1014.1 hPa SW 31.1 mph /  50.0 km/h 31.1 mph /  50.0 km/h 88 % 0 in /  0.0 mm
08:10 59.5 °F /  15.3 °C 55.9 °F /  13.3 °C 30 in /  1014.4 hPa WSW 33.4 mph /  53.7 km/h 33.4 mph /  53.7 km/h 88 % 0 in /  0.0 mm
08:15 59.5 °F /  15.3 °C 55.9 °F /  13.3 °C 30 in /  1014.4 hPa WSW 29.9 mph /  48.1 km/h 29.9 mph /  48.1 km/h 88 % 0 in /  0.0 mm
08:16 59.5 °F /  15.3 °C 55.9 °F /  13.3 °C 29.9 in /  1014.1 hPa WSW 29.9 mph /  48.1 km/h 29.9 mph /  48.1 km/h 88 % 0 in /  0.0 mm
08:21 59.5 °F /  15.3 °C 56.3 °F /  13.5 °C 29.9 in /  1014.1 hPa WSW 27.6 mph /  44.4 km/h 27.6 mph /  44.4 km/h 89 % 0 in /  0.0 mm
08:22 59.5 °F /  15.3 °C 56.3 °F /  13.5 °C 29.9 in /  1014.1 hPa WSW 29.9 mph /  48.1 km/h 29.9 mph /  48.1 km/h 89 % 0 in /  0.0 mm
08:26 59.5 °F /  15.3 °C 56.3 °F /  13.5 °C 30 in /  1014.4 hPa WSW 32.2 mph /  51.8 km/h 32.2 mph /  51.8 km/h 89 % 0 in /  0.0 mm
08:30 59.5 °F /  15.3 °C 55.9 °F /  13.3 °C 29.9 in /  1014.1 hPa WSW 24 mph /  38.6 km/h 33 mph /  53.1 km/h 88 % 0 in /  0.0 mm
08:35 59.7 °F /  15.4 °C 56.1 °F /  13.4 °C 30 in /  1014.4 hPa WSW 27 mph /  43.4 km/h 27 mph /  43.4 km/h 88 % 0 in /  0.0 mm
08:40 60.1 °F /  15.6 °C 56.1 °F /  13.4 °C 30 in /  1014.4 hPa WSW 29.9 mph /  48.1 km/h 29.9 mph /  48.1 km/h 87 % 0 in /  0.0 mm
08:41 60.1 °F /  15.6 °C 56.1 °F /  13.4 °C 30 in /  1014.4 hPa WSW 29.9 mph /  48.1 km/h 29.9 mph /  48.1 km/h 87 % 0 in /  0.0 mm
08:43 60.1 °F /  15.6 °C 56.1 °F /  13.4 °C 30 in /  1014.4 hPa WSW 27.6 mph /  44.4 km/h 27.6 mph /  44.4 km/h 87 % 0 in /  0.0 mm
08:46 60.1 °F /  15.6 °C 56.1 °F /  13.4 °C 30 in /  1014.4 hPa WSW 28.8 mph /  46.3 km/h 28.8 mph /  46.3 km/h 87 % 0 in /  0.0 mm
08:51 60.1 °F /  15.6 °C 56.1 °F /  13.4 °C 30 in /  1014.8 hPa WSW 29.9 mph /  48.1 km/h 29.9 mph /  48.1 km/h 87 % 0 in /  0.0 mm
08:52 59.9 °F /  15.5 °C 55.9 °F /  13.3 °C 30 in /  1014.4 hPa WSW 24.2 mph /  38.9 km/h 24.2 mph /  38.9 km/h 87 % 0 in /  0.0 mm
08:57 59.9 °F /  15.5 °C 56.3 °F /  13.5 °C 30 in /  1014.8 hPa WSW 31.1 mph /  50.0 km/h 31.1 mph /  50.0 km/h 88 % 0 in /  0.0 mm
08:58 59.9 °F /  15.5 °C 56.3 °F /  13.5 °C 30 in /  1014.4 hPa WSW 31.1 mph /  50.0 km/h 31.1 mph /  50.0 km/h 88 % 0 in /  0.0 mm
08:59 59.9 °F /  15.5 °C 56.3 °F /  13.5 °C 30 in /  1014.4 hPa WSW 34.5 mph /  55.5 km/h 34.5 mph /  55.5 km/h 88 % 0 in /  0.0 mm
09:04 59.7 °F /  15.4 °C 56.1 °F /  13.4 °C 30 in /  1014.4 hPa WSW 26.5 mph /  42.6 km/h 26.5 mph /  42.6 km/h 88 % 0 in /  0.0 mm
09:06 59.7 °F /  15.4 °C 56.1 °F /  13.4 °C 30 in /  1014.4 hPa SW 26.5 mph /  42.6 km/h 26.5 mph /  42.6 km/h 88 % 0 in /  0.0 mm
09:08 59.7 °F /  15.4 °C 56.1 °F /  13.4 °C 30 in /  1014.8 hPa WSW 31 mph /  49.9 km/h 31 mph /  49.9 km/h 88 % 0 in /  0.0 mm
09:13 59.7 °F /  15.4 °C 56.5 °F /  13.6 °C 30 in /  1014.8 hPa WSW 28.8 mph /  46.3 km/h 28.8 mph /  46.3 km/h 89 % 0 in /  0.0 mm
09:16 59.7 °F /  15.4 °C 56.5 °F /  13.6 °C 30 in /  1014.8 hPa SW 26.5 mph /  42.6 km/h 26.5 mph /  42.6 km/h 89 % 0 in /  0.0 mm
09:18 59.5 °F /  15.3 °C 56.5 °F /  13.6 °C 30 in /  1014.8 hPa WSW 28.8 mph /  46.3 km/h 28.8 mph /  46.3 km/h 89 % 0 in /  0.0 mm
09:23 59.5 °F /  15.3 °C 56.5 °F /  13.6 °C 30 in /  1014.8 hPa SW 27 mph /  43.4 km/h 27 mph /  43.4 km/h 89 % 0 in /  0.0 mm
09:24 59.5 °F /  15.3 °C 56.5 °F /  13.6 °C 30 in /  1014.8 hPa WSW 27 mph /  43.4 km/h 27 mph /  43.4 km/h 89 % 0 in /  0.0 mm
09:29 59.5 °F /  15.3 °C 56.3 °F /  13.5 °C 30 in /  1014.4 hPa WSW 29.9 mph /  48.1 km/h 29.9 mph /  48.1 km/h 89 % 0 in /  0.0 mm
09:32 59.5 °F /  15.3 °C 56.7 °F /  13.7 °C 30 in /  1014.4 hPa WSW 33 mph /  53.1 km/h 33 mph /  53.1 km/h 90 % 0 in /  0.0 mm
09:37 59.5 °F /  15.3 °C 56.7 °F /  13.7 °C 30 in /  1014.8 hPa SW 26.5 mph /  42.6 km/h 26.5 mph /  42.6 km/h 90 % 0 in /  0.0 mm
09:38 59.5 °F /  15.3 °C 56.7 °F /  13.7 °C 30 in /  1014.8 hPa West 27.6 mph /  44.4 km/h 27.6 mph /  44.4 km/h 90 % 0 in /  0.0 mm
09:42 59.5 °F /  15.3 °C 56.7 °F /  13.7 °C 30 in /  1014.8 hPa WSW 28.8 mph /  46.3 km/h 28.8 mph /  46.3 km/h 90 % 0 in /  0.0 mm
09:43 59.5 °F /  15.3 °C 56.7 °F /  13.7 °C 30 in /  1015.1 hPa WSW 29 mph /  46.7 km/h 29 mph /  46.7 km/h 90 % 0 in /  0.0 mm
09:48 59.5 °F /  15.3 °C 56.7 °F /  13.7 °C 30 in /  1014.8 hPa West 27.6 mph /  44.4 km/h 27.6 mph /  44.4 km/h 90 % 0 in /  0.0 mm
09:53 59.5 °F /  15.3 °C 56.7 °F /  13.7 °C 30 in /  1015.1 hPa WSW 29 mph /  46.7 km/h 29 mph /  46.7 km/h 90 % 0 in /  0.0 mm
09:55 59.5 °F /  15.3 °C 56.7 °F /  13.7 °C 30 in /  1014.8 hPa SW 28.8 mph /  46.3 km/h 28.8 mph /  46.3 km/h 90 % 0 in /  0.0 mm
10:00 59.5 °F /  15.3 °C 56.8 °F /  13.8 °C 30 in /  1015.1 hPa WSW 26.5 mph /  42.6 km/h 26.5 mph /  42.6 km/h 91 % 0 in /  0.0 mm
10:01 59.5 °F /  15.3 °C 56.8 °F /  13.8 °C 30 in /  1015.1 hPa WSW 26.5 mph /  42.6 km/h 26.5 mph /  42.6 km/h 91 % 0 in /  0.0 mm
10:06 59.5 °F /  15.3 °C 56.8 °F /  13.8 °C 30 in /  1015.1 hPa WSW 26.5 mph /  42.6 km/h 26.5 mph /  42.6 km/h 91 % 0 in /  0.0 mm
10:07 59.5 °F /  15.3 °C 56.8 °F /  13.8 °C 30 in /  1015.5 hPa WSW 26.5 mph /  42.6 km/h 26.5 mph /  42.6 km/h 91 % 0 in /  0.0 mm
10:12 59.5 °F /  15.3 °C 57 °F /  13.9 °C 30 in /  1015.5 hPa WSW 28.8 mph /  46.3 km/h 28.8 mph /  46.3 km/h 91 % 0 in /  0.0 mm
10:17 59.7 °F /  15.4 °C 57.2 °F /  14.0 °C 30 in /  1015.5 hPa WSW 23 mph /  37.0 km/h 23 mph /  37.0 km/h 91 % 0 in /  0.0 mm
10:18 59.7 °F /  15.4 °C 57.2 °F /  14.0 °C 30 in /  1015.5 hPa WSW 23 mph /  37.0 km/h 23 mph /  37.0 km/h 91 % 0 in /  0.0 mm
10:21 60.1 °F /  15.6 °C 57.4 °F /  14.1 °C 30 in /  1015.8 hPa SW 20.7 mph /  33.3 km/h 20.7 mph /  33.3 km/h 91 % 0 in /  0.0 mm
10:24 60.3 °F /  15.7 °C 57.4 °F /  14.1 °C 30 in /  1015.8 hPa WSW 17.3 mph /  27.8 km/h 17.3 mph /  27.8 km/h 90 % 0 in /  0.0 mm
10:27 60.3 °F /  15.7 °C 57.4 °F /  14.1 °C 30 in /  1015.8 hPa SW 17 mph /  27.4 km/h 17 mph /  27.4 km/h 90 % 0 in /  0.0 mm
10:31 60.4 °F /  15.8 °C 57.2 °F /  14.0 °C 30 in /  1015.8 hPa WSW 17.3 mph /  27.8 km/h 17.3 mph /  27.8 km/h 89 % 0 in /  0.0 mm
10:36 60.8 °F /  16.0 °C 57.2 °F /  14.0 °C 30 in /  1016.1 hPa West 10 mph /  16.1 km/h 10 mph /  16.1 km/h 88 % 0 in /  0.0 mm
10:37 61 °F /  16.1 °C 57.4 °F /  14.1 °C 30 in /  1016.1 hPa West 10.4 mph /  16.7 km/h 10.4 mph /  16.7 km/h 88 % 0 in /  0.0 mm
10:42 61.3 °F /  16.3 °C 57 °F /  13.9 °C 30 in /  1016.1 hPa West 8.1 mph /  13.0 km/h 8.1 mph /  13.0 km/h 86 % 0 in /  0.0 mm
10:44 61.5 °F /  16.4 °C 57 °F /  13.9 °C 30 in /  1016.1 hPa West 8.1 mph /  13.0 km/h 8.1 mph /  13.0 km/h 85 % 0 in /  0.0 mm
10:49 62.1 °F /  16.7 °C 56.1 °F /  13.4 °C 30 in /  1016.5 hPa West 10.4 mph /  16.7 km/h 10.4 mph /  16.7 km/h 81 % 0 in /  0.0 mm
10:50 62.1 °F /  16.7 °C 56.1 °F /  13.4 °C 30 in /  1016.5 hPa WSW 6.9 mph /  11.1 km/h 6.9 mph /  11.1 km/h 81 % 0 in /  0.0 mm
10:51 62.2 °F /  16.8 °C 55.9 °F /  13.3 °C 30 in /  1016.5 hPa SW 8 mph /  12.9 km/h 8 mph /  12.9 km/h 80 % 0 in /  0.0 mm
10:56 62.8 °F /  17.1 °C 55.4 °F /  13.0 °C 30 in /  1016.5 hPa WNW 3.5 mph /  5.6 km/h 3.5 mph /  5.6 km/h 77 % 0 in /  0.0 mm
10:57 62.8 °F /  17.1 °C 55.4 °F /  13.0 °C 30 in /  1016.5 hPa WNW 3.5 mph /  5.6 km/h 3.5 mph /  5.6 km/h 77 % 0 in /  0.0 mm
11:02 63 °F /  17.2 °C 54.7 °F /  12.6 °C 30 in /  1016.5 hPa NW 4 mph /  6.4 km/h 4 mph /  6.4 km/h 74 % 0 in /  0.0 mm
11:06 63.1 °F /  17.3 °C 54.3 °F /  12.4 °C 30 in /  1016.5 hPa WNW 8.1 mph /  13.0 km/h 8.1 mph /  13.0 km/h 73 % 0 in /  0.0 mm
11:11 63.3 °F /  17.4 °C 53.2 °F /  11.8 °C 30 in /  1016.5 hPa West 6.9 mph /  11.1 km/h 6.9 mph /  11.1 km/h 70 % 0 in /  0.0 mm
11:12 63.3 °F /  17.4 °C 53.2 °F /  11.8 °C 30 in /  1016.8 hPa West 6.9 mph /  11.1 km/h 6.9 mph /  11.1 km/h 70 % 0 in /  0.0 mm
11:17 63.5 °F /  17.5 °C 53.1 °F /  11.7 °C 30 in /  1016.8 hPa NW 8.1 mph /  13.0 km/h 8.1 mph /  13.0 km/h 69 % 0 in /  0.0 mm
11:22 63.7 °F /  17.6 °C 52.9 °F /  11.6 °C 30 in /  1016.8 hPa WNW 9.2 mph /  14.8 km/h 9.2 mph /  14.8 km/h 68 % 0 in /  0.0 mm
11:27 63.7 °F /  17.6 °C 52.9 °F /  11.6 °C 30 in /  1016.8 hPa SW 2.3 mph /  3.7 km/h   68 % 0 in /  0.0 mm
11:32 63.7 °F /  17.6 °C 52.5 °F /  11.4 °C 30 in /  1016.8 hPa WSW 4.6 mph /  7.4 km/h 4.6 mph /  7.4 km/h 67 % 0 in /  0.0 mm
11:33 63.7 °F /  17.6 °C 52.5 °F /  11.4 °C 30 in /  1016.8 hPa WSW 3.5 mph /  5.6 km/h 3.5 mph /  5.6 km/h 67 % 0 in /  0.0 mm
11:38 63.9 °F /  17.7 °C 51.8 °F /  11.0 °C 30 in /  1016.8 hPa West 11.5 mph /  18.5 km/h 11.5 mph /  18.5 km/h 65 % 0 in /  0.0 mm
11:43 64.2 °F /  17.9 °C 51.8 °F /  11.0 °C 30 in /  1016.8 hPa NW 11.5 mph /  18.5 km/h 11.5 mph /  18.5 km/h 64 % 0 in /  0.0 mm
11:44 64.2 °F /  17.9 °C 51.8 °F /  11.0 °C 30 in /  1016.8 hPa WNW 13 mph /  20.9 km/h 13 mph /  20.9 km/h 64 % 0 in /  0.0 mm
11:49 64.6 °F /  18.1 °C 51.6 °F /  10.9 °C 30 in /  1017.2 hPa West 10 mph /  16.1 km/h 10 mph /  16.1 km/h 63 % 0 in /  0.0 mm
11:50 64.6 °F /  18.1 °C 51.3 °F /  10.7 °C 30 in /  1017.2 hPa WNW 13.8 mph /  22.2 km/h 13.8 mph /  22.2 km/h 62 % 0 in /  0.0 mm
11:54 64.9 °F /  18.3 °C 51.1 °F /  10.6 °C 30 in /  1017.2 hPa NW 16.1 mph /  25.9 km/h 16.1 mph /  25.9 km/h 61 % 0 in /  0.0 mm
11:59 65.1 °F /  18.4 °C 50.9 °F /  10.5 °C 30 in /  1016.8 hPa WNW 17.3 mph /  27.8 km/h 17.3 mph /  27.8 km/h 60 % 0 in /  0.0 mm
12:00 65.1 °F /  18.4 °C 50.9 °F /  10.5 °C 30 in /  1016.8 hPa West 17.3 mph /  27.8 km/h 17.3 mph /  27.8 km/h 60 % 0 in /  0.0 mm
12:05 65.3 °F /  18.5 °C 51.1 °F /  10.6 °C 30 in /  1016.8 hPa West 8.1 mph /  13.0 km/h 8.1 mph /  13.0 km/h 60 % 0 in /  0.0 mm
12:10 65.5 °F /  18.6 °C 50.7 °F /  10.4 °C 30 in /  1016.8 hPa WNW 15 mph /  24.1 km/h 15 mph /  24.1 km/h 59 % 0 in /  0.0 mm
12:11 65.5 °F /  18.6 °C 50.7 °F /  10.4 °C 30 in /  1016.8 hPa NNW 15 mph /  24.1 km/h 15 mph /  24.1 km/h 59 % 0 in /  0.0 mm
12:12 65.5 °F /  18.6 °C 50.7 °F /  10.4 °C 30 in /  1016.8 hPa NW 10.4 mph /  16.7 km/h 10.4 mph /  16.7 km/h 59 % 0 in /  0.0 mm
12:16 65.7 °F /  18.7 °C 50.9 °F /  10.5 °C 30 in /  1016.8 hPa WNW 10.4 mph /  16.7 km/h 10.4 mph /  16.7 km/h 59 % 0 in /  0.0 mm
12:21 65.7 °F /  18.7 °C 50.9 °F /  10.5 °C 30 in /  1016.5 hPa NW 8.1 mph /  13.0 km/h 8.1 mph /  13.0 km/h 59 % 0 in /  0.0 mm
12:22 65.7 °F /  18.7 °C 50.9 °F /  10.5 °C 30 in /  1016.5 hPa NW 8.1 mph /  13.0 km/h 8.1 mph /  13.0 km/h 59 % 0 in /  0.0 mm
12:27 65.8 °F /  18.8 °C 51.1 °F /  10.6 °C 30 in /  1016.5 hPa WNW 8.1 mph /  13.0 km/h 8.1 mph /  13.0 km/h 59 % 0 in /  0.0 mm
12:29 65.8 °F /  18.8 °C 50.7 °F /  10.4 °C 30 in /  1016.5 hPa NNW 5.8 mph /  9.3 km/h 5.8 mph /  9.3 km/h 58 % 0 in /  0.0 mm
12:31 66 °F /  18.9 °C 50.7 °F /  10.4 °C 30 in /  1016.5 hPa NNW 7 mph /  11.3 km/h 7 mph /  11.3 km/h 58 % 0 in /  0.0 mm
12:36 66 °F /  18.9 °C 50.9 °F /  10.5 °C 30 in /  1016.1 hPa WSW 13 mph /  20.9 km/h 13 mph /  20.9 km/h 58 % 0 in /  0.0 mm
12:41 66 °F /  18.9 °C 50.9 °F /  10.5 °C 30 in /  1016.1 hPa NNE 6 mph /  9.7 km/h 6 mph /  9.7 km/h 58 % 0 in /  0.0 mm
12:46 66 °F /  18.9 °C 50.7 °F /  10.4 °C 30 in /  1016.1 hPa West 5.8 mph /  9.3 km/h 5.8 mph /  9.3 km/h 58 % 0 in /  0.0 mm
12:48 65.8 °F /  18.8 °C 50.7 °F /  10.4 °C 30 in /  1016.1 hPa West 5.8 mph /  9.3 km/h 5.8 mph /  9.3 km/h 58 % 0 in /  0.0 mm
12:53 65.8 °F /  18.8 °C 52.3 °F /  11.3 °C 30 in /  1016.1 hPa WSW 10.4 mph /  16.7 km/h 10.4 mph /  16.7 km/h 62 % 0 in /  0.0 mm
12:58 65.3 °F /  18.5 °C 52.3 °F /  11.3 °C 30 in /  1016.1 hPa West 8.1 mph /  13.0 km/h 8.1 mph /  13.0 km/h 63 % 0 in /  0.0 mm
12:59 65.1 °F /  18.4 °C 52.2 °F /  11.2 °C 30 in /  1015.8 hPa West 6.9 mph /  11.1 km/h 6.9 mph /  11.1 km/h 63 % 0 in /  0.0 mm
13:05 64.9 °F /  18.3 °C 52.2 °F /  11.2 °C 30 in /  1016.1 hPa West 5.8 mph /  9.3 km/h 5.8 mph /  9.3 km/h 63 % 0 in /  0.0 mm
13:06 64.9 °F /  18.3 °C 52.2 °F /  11.2 °C 30 in /  1016.1 hPa WNW 4.6 mph /  7.4 km/h 5.1 mph /  8.2 km/h 63 % 0 in /  0.0 mm
13:10 64.9 °F /  18.3 °C 50.4 °F /  10.2 °C 30 in /  1016.1 hPa SW 10.4 mph /  16.7 km/h 10.4 mph /  16.7 km/h 59 % 0 in /  0.0 mm
13:12 65.1 °F /  18.4 °C 50.9 °F /  10.5 °C 30 in /  1016.1 hPa NW 8.1 mph /  13.0 km/h 8.1 mph /  13.0 km/h 60 % 0 in /  0.0 mm
13:17 65.5 °F /  18.6 °C 49.3 °F /  9.6 °C 30 in /  1015.8 hPa West 15 mph /  24.1 km/h 15 mph /  24.1 km/h 56 % 0 in /  0.0 mm
13:18 65.5 °F /  18.6 °C 49.5 °F /  9.7 °C 30 in /  1015.8 hPa West 17.3 mph /  27.8 km/h 17.3 mph /  27.8 km/h 56 % 0 in /  0.0 mm
13:21 65.7 °F /  18.7 °C 50 °F /  10.0 °C 30 in /  1015.8 hPa West 12.7 mph /  20.4 km/h 12.7 mph /  20.4 km/h 57 % 0 in /  0.0 mm
13:24 65.5 °F /  18.6 °C 51.3 °F /  10.7 °C 30 in /  1015.8 hPa WSW 21 mph /  33.8 km/h 21 mph /  33.8 km/h 60 % 0 in /  0.0 mm
13:29 64.6 °F /  18.1 °C 51.6 °F /  10.9 °C 30 in /  1015.8 hPa West 13.8 mph /  22.2 km/h 13.8 mph /  22.2 km/h 63 % 0 in /  0.0 mm
13:34 64.2 °F /  17.9 °C 51.8 °F /  11.0 °C 30 in /  1015.8 hPa West 18.4 mph /  29.6 km/h 18.4 mph /  29.6 km/h 64 % 0 in /  0.0 mm
13:37 64.2 °F /  17.9 °C 50.5 °F /  10.3 °C 30 in /  1015.8 hPa West 14 mph /  22.5 km/h 14 mph /  22.5 km/h 61 % 0 in /  0.0 mm
13:41 64.6 °F /  18.1 °C 50.7 °F /  10.4 °C 30 in /  1015.8 hPa WNW 10.4 mph /  16.7 km/h 10.4 mph /  16.7 km/h 61 % 0 in /  0.0 mm
13:46 64.8 °F /  18.2 °C 50.9 °F /  10.5 °C 30 in /  1015.5 hPa West 23 mph /  37.0 km/h 23 mph /  37.0 km/h 61 % 0 in /  0.0 mm
13:47 64.8 °F /  18.2 °C 50.9 °F /  10.5 °C 30 in /  1015.5 hPa West 23 mph /  37.0 km/h 23 mph /  37.0 km/h 61 % 0 in /  0.0 mm
13:48 64.8 °F /  18.2 °C 50.9 °F /  10.5 °C 30 in /  1015.5 hPa WSW 23 mph /  37.0 km/h 23 mph /  37.0 km/h 61 % 0 in /  0.0 mm
13:52 64.8 °F /  18.2 °C 50.2 °F /  10.1 °C 30 in /  1015.5 hPa West 14 mph /  22.5 km/h 14 mph /  22.5 km/h 59 % 0 in /  0.0 mm
13:54 64.9 °F /  18.3 °C 50.7 °F /  10.4 °C 30 in /  1015.5 hPa WSW 15 mph /  24.1 km/h 15 mph /  24.1 km/h 60 % 0 in /  0.0 mm
13:58 64.9 °F /  18.3 °C 50.7 °F /  10.4 °C 30 in /  1015.5 hPa WNW 15 mph /  24.1 km/h 15 mph /  24.1 km/h 60 % 0 in /  0.0 mm
14:00 64.9 °F /  18.3 °C 50.2 °F /  10.1 °C 30 in /  1015.5 hPa West 16.1 mph /  25.9 km/h 16.1 mph /  25.9 km/h 59 % 0 in /  0.0 mm
14:04 64.8 °F /  18.2 °C 50.2 °F /  10.1 °C 30 in /  1015.5 hPa West 19.6 mph /  31.5 km/h 19.6 mph /  31.5 km/h 59 % 0 in /  0.0 mm
14:05 64.8 °F /  18.2 °C 50 °F /  10.0 °C 30 in /  1015.1 hPa West 15 mph /  24.1 km/h 15 mph /  24.1 km/h 59 % 0 in /  0.0 mm
14:09 64.6 °F /  18.1 °C 49.8 °F /  9.9 °C 30 in /  1015.5 hPa West 13.8 mph /  22.2 km/h 13.8 mph /  22.2 km/h 59 % 0 in /  0.0 mm
14:11 64.6 °F /  18.1 °C 49.5 °F /  9.7 °C 30 in /  1015.1 hPa WSW 21.9 mph /  35.2 km/h 21.9 mph /  35.2 km/h 58 % 0 in /  0.0 mm
14:16 64.6 °F /  18.1 °C 49.8 °F /  9.9 °C 30 in /  1015.5 hPa West 20 mph /  32.2 km/h 20 mph /  32.2 km/h 59 % 0 in /  0.0 mm
14:17 64.6 °F /  18.1 °C 49.8 °F /  9.9 °C 30 in /  1015.5 hPa WSW 19.6 mph /  31.5 km/h 19.6 mph /  31.5 km/h 59 % 0 in /  0.0 mm
14:20 64.6 °F /  18.1 °C 49.8 °F /  9.9 °C 30 in /  1015.1 hPa West 15 mph /  24.1 km/h 15 mph /  24.1 km/h 59 % 0 in /  0.0 mm
14:22 64.4 °F /  18.0 °C 49.8 °F /  9.9 °C 30 in /  1015.1 hPa West 11.5 mph /  18.5 km/h 11.5 mph /  18.5 km/h 59 % 0 in /  0.0 mm
14:27 64.6 °F /  18.1 °C 49.8 °F /  9.9 °C 30 in /  1015.1 hPa West 19.6 mph /  31.5 km/h 19.6 mph /  31.5 km/h 59 % 0 in /  0.0 mm
14:29 64.6 °F /  18.1 °C 49.5 °F /  9.7 °C 30 in /  1015.5 hPa WNW 19.6 mph /  31.5 km/h 19.6 mph /  31.5 km/h 58 % 0 in /  0.0 mm
14:32 64.6 °F /  18.1 °C 49.8 °F /  9.9 °C 30 in /  1015.5 hPa WSW 18.4 mph /  29.6 km/h 18.4 mph /  29.6 km/h 59 % 0 in /  0.0 mm
14:35 64.4 °F /  18.0 °C 49.8 °F /  9.9 °C 30 in /  1015.1 hPa West 19.6 mph /  31.5 km/h 19.6 mph /  31.5 km/h 59 % 0 in /  0.0 mm
14:37 64.4 °F /  18.0 °C 50.2 °F /  10.1 °C 30 in /  1015.1 hPa WSW 19.6 mph /  31.5 km/h 19.6 mph /  31.5 km/h 60 % 0 in /  0.0 mm
14:40 64.2 °F /  17.9 °C 49.6 °F /  9.8 °C 30 in /  1015.5 hPa WNW 19.6 mph /  31.5 km/h 19.6 mph /  31.5 km/h 59 % 0 in /  0.0 mm
14:45 64.2 °F /  17.9 °C 50 °F /  10.0 °C 30 in /  1015.5 hPa WSW 17.3 mph /  27.8 km/h 17.3 mph /  27.8 km/h 60 % 0 in /  0.0 mm
14:49 64.2 °F /  17.9 °C 50 °F /  10.0 °C 30 in /  1015.5 hPa West 10.4 mph /  16.7 km/h 10.4 mph /  16.7 km/h 60 % 0 in /  0.0 mm
14:51 64 °F /  17.8 °C 50.4 °F /  10.2 °C 30 in /  1015.5 hPa WNW 15 mph /  24.1 km/h 15 mph /  24.1 km/h 61 % 0 in /  0.0 mm
14:54 64 °F /  17.8 °C 50.4 °F /  10.2 °C 30 in /  1015.5 hPa West 16.1 mph /  25.9 km/h 16.1 mph /  25.9 km/h 61 % 0 in /  0.0 mm
14:58 63.9 °F /  17.7 °C 50.2 °F /  10.1 °C 30 in /  1015.5 hPa WSW 18.4 mph /  29.6 km/h 18.4 mph /  29.6 km/h 61 % 0 in /  0.0 mm
15:01 63.9 °F /  17.7 °C 50.2 °F /  10.1 °C 30 in /  1015.1 hPa West 17.3 mph /  27.8 km/h 17.3 mph /  27.8 km/h 61 % 0 in /  0.0 mm
15:06 63.7 °F /  17.6 °C 50.4 °F /  10.2 °C 30 in /  1015.1 hPa WNW 18.4 mph /  29.6 km/h 18.4 mph /  29.6 km/h 62 % 0 in /  0.0 mm
15:07 63.7 °F /  17.6 °C 50 °F /  10.0 °C 30 in /  1015.1 hPa WNW 18.4 mph /  29.6 km/h 18.4 mph /  29.6 km/h 61 % 0 in /  0.0 mm
15:12 63.7 °F /  17.6 °C 50 °F /  10.0 °C 30 in /  1015.5 hPa West 16.1 mph /  25.9 km/h 16.1 mph /  25.9 km/h 61 % 0 in /  0.0 mm
15:17 63.7 °F /  17.6 °C 50.4 °F /  10.2 °C 30 in /  1015.5 hPa WNW 9.2 mph /  14.8 km/h 9.2 mph /  14.8 km/h 62 % 0 in /  0.0 mm
15:18 63.7 °F /  17.6 °C 50.4 °F /  10.2 °C 30 in /  1015.5 hPa NW 9.2 mph /  14.8 km/h 9.2 mph /  14.8 km/h 62 % 0 in /  0.0 mm
15:23 63.5 °F /  17.5 °C 50.2 °F /  10.1 °C 30 in /  1015.5 hPa West 11 mph /  17.7 km/h 11 mph /  17.7 km/h 62 % 0 in /  0.0 mm
15:26 63.5 °F /  17.5 °C 50.2 °F /  10.1 °C 30 in /  1015.5 hPa West 15 mph /  24.1 km/h 15 mph /  24.1 km/h 62 % 0 in /  0.0 mm
15:29 63.7 °F /  17.6 °C 50.4 °F /  10.2 °C 30 in /  1015.5 hPa West 12.7 mph /  20.4 km/h 12.7 mph /  20.4 km/h 62 % 0 in /  0.0 mm
15:31 63.5 °F /  17.5 °C 50.7 °F /  10.4 °C 30 in /  1015.5 hPa West 10.4 mph /  16.7 km/h 10.4 mph /  16.7 km/h 63 % 0 in /  0.0 mm
15:36 63.5 °F /  17.5 °C 50.7 °F /  10.4 °C 30 in /  1015.1 hPa West 15 mph /  24.1 km/h 15 mph /  24.1 km/h 63 % 0 in /  0.0 mm
15:41 63.5 °F /  17.5 °C 50.7 °F /  10.4 °C 30 in /  1015.1 hPa West 10.4 mph /  16.7 km/h 10.4 mph /  16.7 km/h 63 % 0 in /  0.0 mm
15:44 63.5 °F /  17.5 °C 50.7 °F /  10.4 °C 30 in /  1015.1 hPa WSW 12.7 mph /  20.4 km/h 12.7 mph /  20.4 km/h 63 % 0 in /  0.0 mm
15:45 63.5 °F /  17.5 °C 50.7 °F /  10.4 °C 30 in /  1015.1 hPa West 17.3 mph /  27.8 km/h 17.3 mph /  27.8 km/h 63 % 0 in /  0.0 mm
15:50 63.3 °F /  17.4 °C 51.1 °F /  10.6 °C 30 in /  1015.1 hPa West 15 mph /  24.1 km/h 15 mph /  24.1 km/h 64 % 0 in /  0.0 mm
15:53 63.3 °F /  17.4 °C 51.3 °F /  10.7 °C 30 in /  1015.1 hPa WSW 18.4 mph /  29.6 km/h 18.4 mph /  29.6 km/h 65 % 0 in /  0.0 mm
15:56 63.1 °F /  17.3 °C 51.6 °F /  10.9 °C 30 in /  1015.1 hPa WSW 19.6 mph /  31.5 km/h 19.6 mph /  31.5 km/h 66 % 0 in /  0.0 mm
16:01 62.8 °F /  17.1 °C 51.6 °F /  10.9 °C 30 in /  1015.1 hPa SW 26.5 mph /  42.6 km/h 26.5 mph /  42.6 km/h 67 % 0 in /  0.0 mm
16:02 62.6 °F /  17.0 °C 51.4 °F /  10.8 °C 30 in /  1015.1 hPa West 24.2 mph /  38.9 km/h 24.2 mph /  38.9 km/h 67 % 0 in /  0.0 mm
16:07 62.4 °F /  16.9 °C 51.6 °F /  10.9 °C 30 in /  1015.1 hPa West 19.6 mph /  31.5 km/h 19.6 mph /  31.5 km/h 68 % 0 in /  0.0 mm
16:12 62.4 °F /  16.9 °C 51.8 °F /  11.0 °C 30 in /  1015.1 hPa WSW 21.9 mph /  35.2 km/h 21.9 mph /  35.2 km/h 68 % 0 in /  0.0 mm
16:13 62.4 °F /  16.9 °C 51.8 °F /  11.0 °C 30 in /  1015.1 hPa West 21.9 mph /  35.2 km/h 21.9 mph /  35.2 km/h 68 % 0 in /  0.0 mm
16:15 62.4 °F /  16.9 °C 51.6 °F /  10.9 °C 30 in /  1015.1 hPa West 24.2 mph /  38.9 km/h 24.2 mph /  38.9 km/h 68 % 0 in /  0.0 mm
16:19 62.2 °F /  16.8 °C 52 °F /  11.1 °C 30 in /  1015.1 hPa WSW 21.9 mph /  35.2 km/h 21.9 mph /  35.2 km/h 69 % 0 in /  0.0 mm
16:21 62.1 °F /  16.7 °C 51.8 °F /  11.0 °C 30 in /  1015.1 hPa West 18.4 mph /  29.6 km/h 18.4 mph /  29.6 km/h 69 % 0 in /  0.0 mm
16:24 62.1 °F /  16.7 °C 52.2 °F /  11.2 °C 30 in /  1015.1 hPa West 25.3 mph /  40.7 km/h 25.3 mph /  40.7 km/h 70 % 0 in /  0.0 mm
16:29 61.9 °F /  16.6 °C 52.3 °F /  11.3 °C 30 in /  1015.1 hPa West 21.9 mph /  35.2 km/h 21.9 mph /  35.2 km/h 71 % 0 in /  0.0 mm
16:32 61.5 °F /  16.4 °C 52.2 °F /  11.2 °C 30 in /  1015.1 hPa West 28.8 mph /  46.3 km/h 28.8 mph /  46.3 km/h 71 % 0 in /  0.0 mm
16:35 61.5 °F /  16.4 °C 52.3 °F /  11.3 °C 30 in /  1015.1 hPa WNW 26.5 mph /  42.6 km/h 26.5 mph /  42.6 km/h 72 % 0 in /  0.0 mm
16:38 61.5 °F /  16.4 °C 52.2 °F /  11.2 °C 30 in /  1015.1 hPa West 25.3 mph /  40.7 km/h 25.3 mph /  40.7 km/h 71 % 0 in /  0.0 mm
16:42 61.7 °F /  16.5 °C 51.8 °F /  11.0 °C 30 in /  1015.1 hPa West 19.6 mph /  31.5 km/h 19.6 mph /  31.5 km/h 70 % 0 in /  0.0 mm
16:46 61.7 °F /  16.5 °C 51.8 °F /  11.0 °C 30 in /  1015.1 hPa West 15 mph /  24.1 km/h 15 mph /  24.1 km/h 70 % 0 in /  0.0 mm
16:49 61.9 °F /  16.6 °C 51.6 °F /  10.9 °C 30 in /  1015.1 hPa WNW 18.4 mph /  29.6 km/h 18.4 mph /  29.6 km/h 69 % 0 in /  0.0 mm
16:51 62.1 °F /  16.7 °C 51.4 °F /  10.8 °C 30 in /  1015.1 hPa West 19.6 mph /  31.5 km/h 19.6 mph /  31.5 km/h 68 % 0 in /  0.0 mm
16:54 62.4 °F /  16.9 °C 50.9 °F /  10.5 °C 30 in /  1015.1 hPa WSW 18.4 mph /  29.6 km/h 18.4 mph /  29.6 km/h 66 % 0 in /  0.0 mm
16:59 62.2 °F /  16.8 °C 51.4 °F /  10.8 °C 30 in /  1015.5 hPa West 23 mph /  37.0 km/h 23 mph /  37.0 km/h 68 % 0 in /  0.0 mm
17:01 62.2 °F /  16.8 °C 51.4 °F /  10.8 °C 30 in /  1015.1 hPa West 23 mph /  37.0 km/h 23 mph /  37.0 km/h 68 % 0 in /  0.0 mm
17:03 62.1 °F /  16.7 °C 51.4 °F /  10.8 °C 30 in /  1015.5 hPa WNW 21.9 mph /  35.2 km/h 21.9 mph /  35.2 km/h 68 % 0 in /  0.0 mm
17:06 62.1 °F /  16.7 °C 51.1 °F /  10.6 °C 30 in /  1015.5 hPa West 17.3 mph /  27.8 km/h 17.3 mph /  27.8 km/h 67 % 0 in /  0.0 mm
17:08 62.2 °F /  16.8 °C 51.1 °F /  10.6 °C 30 in /  1015.1 hPa NNW 16 mph /  25.7 km/h 16 mph /  25.7 km/h 67 % 0 in /  0.0 mm
17:11 62.2 °F /  16.8 °C 50.7 °F /  10.4 °C 30 in /  1015.5 hPa WNW 15 mph /  24.1 km/h 15 mph /  24.1 km/h 66 % 0 in /  0.0 mm
17:14 62.4 °F /  16.9 °C 50.9 °F /  10.5 °C 30 in /  1015.5 hPa WNW 15 mph /  24.1 km/h 15 mph /  24.1 km/h 66 % 0 in /  0.0 mm
17:17 62.4 °F /  16.9 °C 50.5 °F /  10.3 °C 30 in /  1015.5 hPa WSW 17.3 mph /  27.8 km/h 17.3 mph /  27.8 km/h 65 % 0 in /  0.0 mm
17:20 62.4 °F /  16.9 °C 50.2 °F /  10.1 °C 30 in /  1015.1 hPa WSW 18.4 mph /  29.6 km/h 18.4 mph /  29.6 km/h 64 % 0 in /  0.0 mm
17:23 62.8 °F /  17.1 °C 50.4 °F /  10.2 °C 30 in /  1015.5 hPa West 17.3 mph /  27.8 km/h 17.3 mph /  27.8 km/h 64 % 0 in /  0.0 mm
17:26 62.8 °F /  17.1 °C 50 °F /  10.0 °C 30 in /  1015.5 hPa WNW 13.8 mph /  22.2 km/h 13.8 mph /  22.2 km/h 63 % 0 in /  0.0 mm
17:31 63 °F /  17.2 °C 50.2 °F /  10.1 °C 30 in /  1015.5 hPa West 15 mph /  24.1 km/h 15 mph /  24.1 km/h 63 % 0 in /  0.0 mm
17:36 63 °F /  17.2 °C 50.2 °F /  10.1 °C 30 in /  1015.5 hPa West 13 mph /  20.9 km/h 13 mph /  20.9 km/h 63 % 0 in /  0.0 mm
17:38 63 °F /  17.2 °C 50.2 °F /  10.1 °C 30 in /  1015.5 hPa West 19.6 mph /  31.5 km/h 19.6 mph /  31.5 km/h 63 % 0 in /  0.0 mm
17:42 63 °F /  17.2 °C 50.2 °F /  10.1 °C 30 in /  1015.8 hPa WNW 18.4 mph /  29.6 km/h 18.4 mph /  29.6 km/h 63 % 0 in /  0.0 mm
17:47 63 °F /  17.2 °C 50.2 °F /  10.1 °C 30 in /  1015.8 hPa WNW 10.4 mph /  16.7 km/h 10.4 mph /  16.7 km/h 63 % 0 in /  0.0 mm
17:52 63 °F /  17.2 °C 50.2 °F /  10.1 °C 30 in /  1015.8 hPa West 11.5 mph /  18.5 km/h 11.5 mph /  18.5 km/h 63 % 0 in /  0.0 mm
17:55 63 °F /  17.2 °C 50.2 °F /  10.1 °C 30 in /  1015.8 hPa West 16.1 mph /  25.9 km/h 16.1 mph /  25.9 km/h 63 % 0 in /  0.0 mm
17:58 63 °F /  17.2 °C 50.5 °F /  10.3 °C 30 in /  1015.8 hPa West 16.1 mph /  25.9 km/h 16.1 mph /  25.9 km/h 64 % 0 in /  0.0 mm
18:00 63 °F /  17.2 °C 50.2 °F /  10.1 °C 30 in /  1015.8 hPa West 17.3 mph /  27.8 km/h 17.3 mph /  27.8 km/h 63 % 0 in /  0.0 mm
18:01 63 °F /  17.2 °C 50.2 °F /  10.1 °C 30 in /  1015.8 hPa WSW 17.3 mph /  27.8 km/h 17.3 mph /  27.8 km/h 63 % 0 in /  0.0 mm
18:06 63 °F /  17.2 °C 50.5 °F /  10.3 °C 30 in /  1015.8 hPa West 18.4 mph /  29.6 km/h 18.4 mph /  29.6 km/h 64 % 0 in /  0.0 mm
18:11 63 °F /  17.2 °C 50.2 °F /  10.1 °C 30 in /  1015.8 hPa West 14 mph /  22.5 km/h 14 mph /  22.5 km/h 63 % 0 in /  0.0 mm
18:16 63 °F /  17.2 °C 50.2 °F /  10.1 °C 30 in /  1015.8 hPa WNW 15 mph /  24.1 km/h 15 mph /  24.1 km/h 63 % 0 in /  0.0 mm
18:17 63 °F /  17.2 °C 50.2 °F /  10.1 °C 30 in /  1015.8 hPa WNW 17.3 mph /  27.8 km/h 17.3 mph /  27.8 km/h 63 % 0 in /  0.0 mm
18:22 63 °F /  17.2 °C 50.2 °F /  10.1 °C 30 in /  1015.8 hPa NW 10.4 mph /  16.7 km/h 10.4 mph /  16.7 km/h 63 % 0 in /  0.0 mm
18:23 63 °F /  17.2 °C 50.2 °F /  10.1 °C 30 in /  1015.8 hPa WNW 10.4 mph /  16.7 km/h 10.4 mph /  16.7 km/h 63 % 0 in /  0.0 mm
18:28 63 °F /  17.2 °C 49.6 °F /  9.8 °C 30 in /  1015.8 hPa WNW 11.5 mph /  18.5 km/h 11.5 mph /  18.5 km/h 62 % 0 in /  0.0 mm
18:30 63 °F /  17.2 °C 49.3 °F /  9.6 °C 30 in /  1015.8 hPa West 11.5 mph /  18.5 km/h 11.5 mph /  18.5 km/h 61 % 0 in /  0.0 mm
18:32 63 °F /  17.2 °C 49.8 °F /  9.9 °C 30 in /  1015.8 hPa NNW 27 mph /  43.4 km/h 27 mph /  43.4 km/h 62 % 0 in /  0.0 mm
18:36 63.3 °F /  17.4 °C 49.3 °F /  9.6 °C 30 in /  1015.8 hPa NW 15 mph /  24.1 km/h 15 mph /  24.1 km/h 60 % 0 in /  0.0 mm
18:41 63.5 °F /  17.5 °C 49.8 °F /  9.9 °C 30 in /  1015.8 hPa West 17.3 mph /  27.8 km/h 17.3 mph /  27.8 km/h 61 % 0 in /  0.0 mm
18:42 63.3 °F /  17.4 °C 49.6 °F /  9.8 °C 30 in /  1015.8 hPa West 20 mph /  32.2 km/h 20 mph /  32.2 km/h 61 % 0 in /  0.0 mm
18:47 63.7 °F /  17.6 °C 48.6 °F /  9.2 °C 30 in /  1015.8 hPa West 17.3 mph /  27.8 km/h 17.3 mph /  27.8 km/h 58 % 0 in /  0.0 mm
18:49 63.7 °F /  17.6 °C 48.9 °F /  9.4 °C 30 in /  1015.8 hPa WNW 17.3 mph /  27.8 km/h 17.3 mph /  27.8 km/h 59 % 0 in /  0.0 mm
18:52 63.7 °F /  17.6 °C 48.9 °F /  9.4 °C 30 in /  1016.1 hPa West 11.5 mph /  18.5 km/h 11.5 mph /  18.5 km/h 59 % 0 in /  0.0 mm
18:58 63.9 °F /  17.7 °C 48.4 °F /  9.1 °C 30 in /  1016.1 hPa West 26.5 mph /  42.6 km/h 26.5 mph /  42.6 km/h 57 % 0 in /  0.0 mm
19:00 63.9 °F /  17.7 °C 48.7 °F /  9.3 °C 30 in /  1016.1 hPa WNW 12 mph /  19.3 km/h 27 mph /  43.4 km/h 58 % 0 in /  0.0 mm
19:03 63.9 °F /  17.7 °C 49.3 °F /  9.6 °C 30 in /  1016.1 hPa West 16.1 mph /  25.9 km/h 16.1 mph /  25.9 km/h 59 % 0 in /  0.0 mm
19:08 63.7 °F /  17.6 °C 49.5 °F /  9.7 °C 30 in /  1016.1 hPa WNW 11.5 mph /  18.5 km/h 11.5 mph /  18.5 km/h 60 % 0 in /  0.0 mm
19:13 63.3 °F /  17.4 °C 49.3 °F /  9.6 °C 30 in /  1016.1 hPa West 20.7 mph /  33.3 km/h 20.7 mph /  33.3 km/h 60 % 0 in /  0.0 mm
19:14 63.1 °F /  17.3 °C 49.1 °F /  9.5 °C 30 in /  1016.1 hPa WNW 15 mph /  24.1 km/h 15 mph /  24.1 km/h 60 % 0 in /  0.0 mm
19:18 63.1 °F /  17.3 °C 49.5 °F /  9.7 °C 30 in /  1016.1 hPa West 14 mph /  22.5 km/h 14 mph /  22.5 km/h 61 % 0 in /  0.0 mm
19:20 63 °F /  17.2 °C 49.8 °F /  9.9 °C 30 in /  1016.5 hPa West 15 mph /  24.1 km/h 15 mph /  24.1 km/h 62 % 0 in /  0.0 mm
19:23 63 °F /  17.2 °C 49.3 °F /  9.6 °C 30 in /  1016.5 hPa NW 19.6 mph /  31.5 km/h 19.6 mph /  31.5 km/h 61 % 0 in /  0.0 mm
19:26 63 °F /  17.2 °C 49.8 °F /  9.9 °C 30 in /  1016.5 hPa West 13.8 mph /  22.2 km/h 13.8 mph /  22.2 km/h 62 % 0 in /  0.0 mm
19:28 63 °F /  17.2 °C 49.8 °F /  9.9 °C 30 in /  1016.5 hPa West 19.6 mph /  31.5 km/h 19.6 mph /  31.5 km/h 62 % 0 in /  0.0 mm
19:31 63.1 °F /  17.3 °C 48.9 °F /  9.4 °C 30 in /  1016.5 hPa West 17.3 mph /  27.8 km/h 17.3 mph /  27.8 km/h 60 % 0 in /  0.0 mm
19:34 63.1 °F /  17.3 °C 49.1 °F /  9.5 °C 30 in /  1016.5 hPa NW 14 mph /  22.5 km/h 14 mph /  22.5 km/h 60 % 0 in /  0.0 mm
19:39 63.3 °F /  17.4 °C 49.3 °F /  9.6 °C 30 in /  1016.5 hPa WNW 11.5 mph /  18.5 km/h 11.5 mph /  18.5 km/h 60 % 0 in /  0.0 mm
19:43 63.1 °F /  17.3 °C 49.5 °F /  9.7 °C 30 in /  1016.5 hPa WNW 15 mph /  24.1 km/h 15 mph /  24.1 km/h 61 % 0 in /  0.0 mm
19:48 63.1 °F /  17.3 °C 49.5 °F /  9.7 °C 30 in /  1016.5 hPa West 14 mph /  22.5 km/h 14 mph /  22.5 km/h 61 % 0 in /  0.0 mm
19:50 63.1 °F /  17.3 °C 50 °F /  10.0 °C 30 in /  1016.5 hPa NW 12.7 mph /  20.4 km/h 12.7 mph /  20.4 km/h 62 % 0 in /  0.0 mm
19:52 63.1 °F /  17.3 °C 49.5 °F /  9.7 °C 30 in /  1016.8 hPa West 15 mph /  24.1 km/h 15 mph /  24.1 km/h 61 % 0 in /  0.0 mm
19:55 63.1 °F /  17.3 °C 49.5 °F /  9.7 °C 30 in /  1016.8 hPa WNW 15 mph /  24.1 km/h 15 mph /  24.1 km/h 61 % 0 in /  0.0 mm
19:57 63.1 °F /  17.3 °C 49.5 °F /  9.7 °C 30 in /  1016.8 hPa WNW 15 mph /  24.1 km/h 15 mph /  24.1 km/h 61 % 0 in /  0.0 mm
20:01 63.1 °F /  17.3 °C 49.8 °F /  9.9 °C 30 in /  1016.8 hPa West 11.5 mph /  18.5 km/h 11.5 mph /  18.5 km/h 62 % 0 in /  0.0 mm
20:06 63 °F /  17.2 °C 49.8 °F /  9.9 °C 30 in /  1016.8 hPa West 19.6 mph /  31.5 km/h 19.6 mph /  31.5 km/h 62 % 0 in /  0.0 mm
20:11 63.3 °F /  17.4 °C 49.6 °F /  9.8 °C 30 in /  1016.8 hPa WNW 11.5 mph /  18.5 km/h 11.5 mph /  18.5 km/h 61 % 0 in /  0.0 mm
20:12 63.3 °F /  17.4 °C 49.6 °F /  9.8 °C 30 in /  1016.8 hPa West 11.5 mph /  18.5 km/h 11.5 mph /  18.5 km/h 61 % 0 in /  0.0 mm
20:17 63.1 °F /  17.3 °C 49.8 °F /  9.9 °C 30 in /  1016.8 hPa West 11.5 mph /  18.5 km/h 11.5 mph /  18.5 km/h 62 % 0 in /  0.0 mm
20:22 63 °F /  17.2 °C 49.6 °F /  9.8 °C 30 in /  1016.8 hPa WNW 18.4 mph /  29.6 km/h 18.4 mph /  29.6 km/h 62 % 0 in /  0.0 mm
20:26 63 °F /  17.2 °C 49.6 °F /  9.8 °C 30 in /  1016.8 hPa NW 16.1 mph /  25.9 km/h 16.1 mph /  25.9 km/h 62 % 0 in /  0.0 mm
20:28 63 °F /  17.2 °C 49.6 °F /  9.8 °C 30 in /  1016.8 hPa WNW 18 mph /  29.0 km/h 18 mph /  29.0 km/h 62 % 0 in /  0.0 mm
20:33 63 °F /  17.2 °C 50.2 °F /  10.1 °C 30 in /  1016.8 hPa NW 12.7 mph /  20.4 km/h 12.7 mph /  20.4 km/h 63 % 0 in /  0.0 mm
20:34 63 °F /  17.2 °C 50.2 °F /  10.1 °C 30 in /  1016.8 hPa WNW 13 mph /  20.9 km/h 13 mph /  20.9 km/h 63 % 0 in /  0.0 mm
20:35 63 °F /  17.2 °C 50.2 °F /  10.1 °C 30 in /  1016.8 hPa WNW 9 mph /  14.5 km/h 13 mph /  20.9 km/h 63 % 0 in /  0.0 mm
20:40 62.8 °F /  17.1 °C 49.8 °F /  9.9 °C 30 in /  1016.8 hPa WNW 12.7 mph /  20.4 km/h 12.7 mph /  20.4 km/h 63 % 0 in /  0.0 mm
20:42 62.8 °F /  17.1 °C 50 °F /  10.0 °C 30 in /  1016.8 hPa NW 15 mph /  24.1 km/h 15 mph /  24.1 km/h 63 % 0 in /  0.0 mm
20:45 62.8 °F /  17.1 °C 49.6 °F /  9.8 °C 30 in /  1016.8 hPa NW 13 mph /  20.9 km/h 21 mph /  33.8 km/h 62 % 0 in /  0.0 mm
20:49 62.8 °F /  17.1 °C 50 °F /  10.0 °C 30 in /  1017.2 hPa West 12 mph /  19.3 km/h 12 mph /  19.3 km/h 63 % 0 in /  0.0 mm
20:50 62.8 °F /  17.1 °C 49.6 °F /  9.8 °C 30 in /  1017.2 hPa NW 18.4 mph /  29.6 km/h 18.4 mph /  29.6 km/h 62 % 0 in /  0.0 mm
20:55 63.1 °F /  17.3 °C 48.9 °F /  9.4 °C 30 in /  1017.2 hPa NW 16.1 mph /  25.9 km/h 16.1 mph /  25.9 km/h 60 % 0 in /  0.0 mm
20:56 63.1 °F /  17.3 °C 48.9 °F /  9.4 °C 30 in /  1017.2 hPa WNW 16.1 mph /  25.9 km/h 16.1 mph /  25.9 km/h 60 % 0 in /  0.0 mm
20:59 63.3 °F /  17.4 °C 49.3 °F /  9.6 °C 30 in /  1017.2 hPa NW 15 mph /  24.1 km/h 15 mph /  24.1 km/h 60 % 0 in /  0.0 mm
21:01 63.3 °F /  17.4 °C 49.3 °F /  9.6 °C 30 in /  1017.2 hPa WNW 17.3 mph /  27.8 km/h 17.3 mph /  27.8 km/h 60 % 0 in /  0.0 mm
21:06 63.5 °F /  17.5 °C 48.9 °F /  9.4 °C 30 in /  1017.2 hPa NW 17.3 mph /  27.8 km/h 17.3 mph /  27.8 km/h 59 % 0 in /  0.0 mm
21:11 63.7 °F /  17.6 °C 48.9 °F /  9.4 °C 30 in /  1016.8 hPa WNW 19.6 mph /  31.5 km/h 19.6 mph /  31.5 km/h 59 % 0 in /  0.0 mm
21:12 63.7 °F /  17.6 °C 48.9 °F /  9.4 °C 30 in /  1016.8 hPa WNW 20.7 mph /  33.3 km/h 20.7 mph /  33.3 km/h 59 % 0 in /  0.0 mm
21:17 63.5 °F /  17.5 °C 48.9 °F /  9.4 °C 30 in /  1017.2 hPa NW 19.6 mph /  31.5 km/h 19.6 mph /  31.5 km/h 59 % 0 in /  0.0 mm
21:21 63.5 °F /  17.5 °C 48.6 °F /  9.2 °C 30 in /  1016.8 hPa NW 24.2 mph /  38.9 km/h 24.2 mph /  38.9 km/h 58 % 0 in /  0.0 mm
21:23 63.7 °F /  17.6 °C 48.6 °F /  9.2 °C 30 in /  1016.8 hPa NW 24 mph /  38.6 km/h 24 mph /  38.6 km/h 58 % 0 in /  0.0 mm
21:26 63.7 °F /  17.6 °C 48.6 °F /  9.2 °C 30 in /  1017.2 hPa NW 25.3 mph /  40.7 km/h 25.3 mph /  40.7 km/h 58 % 0 in /  0.0 mm
21:31 63.5 °F /  17.5 °C 48.6 °F /  9.2 °C 30 in /  1016.8 hPa NNW 24.2 mph /  38.9 km/h 24.2 mph /  38.9 km/h 58 % 0 in /  0.0 mm
21:32 63.5 °F /  17.5 °C 48.6 °F /  9.2 °C 30 in /  1016.8 hPa NNW 24.2 mph /  38.9 km/h 24.2 mph /  38.9 km/h 58 % 0 in /  0.0 mm
21:37 63.3 °F /  17.4 °C 48.4 °F /  9.1 °C 30 in /  1017.2 hPa NW 19.6 mph /  31.5 km/h 19.6 mph /  31.5 km/h 58 % 0 in /  0.0 mm
21:42 63.3 °F /  17.4 °C 48.4 °F /  9.1 °C 30 in /  1017.2 hPa NNW 23 mph /  37.0 km/h 23 mph /  37.0 km/h 58 % 0 in /  0.0 mm
21:43 63.1 °F /  17.3 °C 48.2 °F /  9.0 °C 30 in /  1017.2 hPa NW 23 mph /  37.0 km/h 23 mph /  37.0 km/h 58 % 0 in /  0.0 mm
21:48 63.1 °F /  17.3 °C 48 °F /  8.9 °C 30 in /  1017.2 hPa NW 21.9 mph /  35.2 km/h 21.9 mph /  35.2 km/h 58 % 0 in /  0.0 mm
21:49 63.1 °F /  17.3 °C 48 °F /  8.9 °C 30 in /  1017.2 hPa NW 19.6 mph /  31.5 km/h 19.6 mph /  31.5 km/h 58 % 0 in /  0.0 mm
21:54 63 °F /  17.2 °C 48 °F /  8.9 °C 30.1 in /  1017.5 hPa NW 24.2 mph /  38.9 km/h 24.2 mph /  38.9 km/h 58 % 0 in /  0.0 mm
21:59 63 °F /  17.2 °C 47.8 °F /  8.8 °C 30 in /  1017.2 hPa NW 24.2 mph /  38.9 km/h 24.2 mph /  38.9 km/h 58 % 0 in /  0.0 mm
22:01 63 °F /  17.2 °C 47.8 °F /  8.8 °C 30.1 in /  1017.5 hPa NW 25 mph /  40.2 km/h 25 mph /  40.2 km/h 58 % 0 in /  0.0 mm
22:05 63 °F /  17.2 °C 47.5 °F /  8.6 °C 30.1 in /  1017.5 hPa WNW 23 mph /  37.0 km/h 23 mph /  37.0 km/h 57 % 0 in /  0.0 mm
22:07 63 °F /  17.2 °C 47.5 °F /  8.6 °C 30 in /  1017.2 hPa NNW 29.9 mph /  48.1 km/h 29.9 mph /  48.1 km/h 57 % 0 in /  0.0 mm
22:11 63 °F /  17.2 °C 47.5 °F /  8.6 °C 30 in /  1017.2 hPa North 23 mph /  37.0 km/h 23 mph /  37.0 km/h 57 % 0 in /  0.0 mm
22:12 62.8 °F /  17.1 °C 47.3 °F /  8.5 °C 30 in /  1017.2 hPa WNW 23 mph /  37.0 km/h 23 mph /  37.0 km/h 57 % 0 in /  0.0 mm
22:17 62.8 °F /  17.1 °C 47.7 °F /  8.7 °C 30 in /  1017.2 hPa NW 19.6 mph /  31.5 km/h 19.6 mph /  31.5 km/h 58 % 0 in /  0.0 mm
22:18 62.8 °F /  17.1 °C 47.7 °F /  8.7 °C 30 in /  1017.2 hPa NW 19.6 mph /  31.5 km/h 19.6 mph /  31.5 km/h 58 % 0 in /  0.0 mm
22:19 62.8 °F /  17.1 °C 47.7 °F /  8.7 °C 30 in /  1017.2 hPa WNW 19.6 mph /  31.5 km/h 19.6 mph /  31.5 km/h 58 % 0 in /  0.0 mm
22:23 62.6 °F /  17.0 °C 47.7 °F /  8.7 °C 30.1 in /  1017.5 hPa NW 23 mph /  37.0 km/h 23 mph /  37.0 km/h 58 % 0 in /  0.0 mm
22:25 62.6 °F /  17.0 °C 47.7 °F /  8.7 °C 30 in /  1017.2 hPa WNW 24.2 mph /  38.9 km/h 24.2 mph /  38.9 km/h 58 % 0 in /  0.0 mm
22:29 62.6 °F /  17.0 °C 47.7 °F /  8.7 °C 30.1 in /  1017.5 hPa NW 21 mph /  33.8 km/h 21 mph /  33.8 km/h 58 % 0 in /  0.0 mm
22:34 62.6 °F /  17.0 °C 47.7 °F /  8.7 °C 30.1 in /  1017.5 hPa WNW 25.3 mph /  40.7 km/h 25.3 mph /  40.7 km/h 58 % 0 in /  0.0 mm
22:35 62.4 °F /  16.9 °C 47.5 °F /  8.6 °C 30.1 in /  1017.8 hPa NW 25.3 mph /  40.7 km/h 25.3 mph /  40.7 km/h 58 % 0 in /  0.0 mm
22:40 62.4 °F /  16.9 °C 47.5 °F /  8.6 °C 30.1 in /  1017.5 hPa NW 16 mph /  25.7 km/h 24 mph /  38.6 km/h 58 % 0 in /  0.0 mm
22:41 62.4 °F /  16.9 °C 47.5 °F /  8.6 °C 30.1 in /  1017.5 hPa NW 19.6 mph /  31.5 km/h 19.6 mph /  31.5 km/h 58 % 0 in /  0.0 mm
22:42 62.4 °F /  16.9 °C 47.5 °F /  8.6 °C 30.1 in /  1017.5 hPa NW 21 mph /  33.8 km/h 21 mph /  33.8 km/h 58 % 0 in /  0.0 mm
22:47 62.6 °F /  17.0 °C 47.7 °F /  8.7 °C 30.1 in /  1017.5 hPa NNW 23 mph /  37.0 km/h 23 mph /  37.0 km/h 58 % 0 in /  0.0 mm
22:48 62.4 °F /  16.9 °C 47.5 °F /  8.6 °C 30.1 in /  1017.5 hPa NNW 21.9 mph /  35.2 km/h 21.9 mph /  35.2 km/h 58 % 0 in /  0.0 mm
22:53 62.4 °F /  16.9 °C 47.5 °F /  8.6 °C 30.1 in /  1017.8 hPa NW 19.6 mph /  31.5 km/h 19.6 mph /  31.5 km/h 58 % 0 in /  0.0 mm
22:57 62.4 °F /  16.9 °C 47.5 °F /  8.6 °C 30.1 in /  1017.8 hPa WNW 16.1 mph /  25.9 km/h 16.1 mph /  25.9 km/h 58 % 0 in /  0.0 mm
22:59 62.4 °F /  16.9 °C 47.5 °F /  8.6 °C 30.1 in /  1017.8 hPa NW 19.6 mph /  31.5 km/h 19.6 mph /  31.5 km/h 58 % 0 in /  0.0 mm
23:04 62.2 °F /  16.8 °C 47.3 °F /  8.5 °C 30.1 in /  1017.5 hPa NNW 19.6 mph /  31.5 km/h 19.6 mph /  31.5 km/h 58 % 0 in /  0.0 mm
23:07 62.2 °F /  16.8 °C 47.3 °F /  8.5 °C 30.1 in /  1017.8 hPa NW 12.7 mph /  20.4 km/h 12.7 mph /  20.4 km/h 58 % 0 in /  0.0 mm
23:09 62.2 °F /  16.8 °C 47.3 °F /  8.5 °C 30.1 in /  1017.8 hPa WNW 13.8 mph /  22.2 km/h 13.8 mph /  22.2 km/h 58 % 0 in /  0.0 mm
23:13 62.2 °F /  16.8 °C 47.1 °F /  8.4 °C 30.1 in /  1017.8 hPa NW 16 mph /  25.7 km/h 16 mph /  25.7 km/h 58 % 0 in /  0.0 mm
23:19 62.4 °F /  16.9 °C 47.5 °F /  8.6 °C 30.1 in /  1018.2 hPa WNW 16 mph /  25.7 km/h 16 mph /  25.7 km/h 58 % 0 in /  0.0 mm
23:24 62.4 °F /  16.9 °C 47.5 °F /  8.6 °C 30.1 in /  1017.8 hPa NW 13.8 mph /  22.2 km/h 13.8 mph /  22.2 km/h 58 % 0 in /  0.0 mm
23:25 62.4 °F /  16.9 °C 47.5 °F /  8.6 °C 30.1 in /  1017.8 hPa NW 13.8 mph /  22.2 km/h 13.8 mph /  22.2 km/h 58 % 0 in /  0.0 mm
23:30 62.2 °F /  16.8 °C 47.8 °F /  8.8 °C 30.1 in /  1018.2 hPa WNW 10.4 mph /  16.7 km/h 10.4 mph /  16.7 km/h 59 % 0 in /  0.0 mm
23:35 62.2 °F /  16.8 °C 47.7 °F /  8.7 °C 30.1 in /  1018.2 hPa NW 5.8 mph /  9.3 km/h 5.8 mph /  9.3 km/h 59 % 0 in /  0.0 mm
23:37 62.1 °F /  16.7 °C 47.7 °F /  8.7 °C 30.1 in /  1018.2 hPa NW 6 mph /  9.7 km/h 6 mph /  9.7 km/h 59 % 0 in /  0.0 mm
23:42 61.9 °F /  16.6 °C 47.5 °F /  8.6 °C 30.1 in /  1018.2 hPa West 9.2 mph /  14.8 km/h 9.2 mph /  14.8 km/h 59 % 0 in /  0.0 mm
23:43 61.9 °F /  16.6 °C 47.8 °F /  8.8 °C 30.1 in /  1018.5 hPa West 7 mph /  11.3 km/h 7 mph /  11.3 km/h 60 % 0 in /  0.0 mm
23:48 61.7 °F /  16.5 °C 47.7 °F /  8.7 °C 30.1 in /  1018.5 hPa West 6.9 mph /  11.1 km/h 6.9 mph /  11.1 km/h 60 % 0 in /  0.0 mm
23:49 61.5 °F /  16.4 °C 48 °F /  8.9 °C 30.1 in /  1018.2 hPa WSW 9.2 mph /  14.8 km/h 9.2 mph /  14.8 km/h 61 % 0 in /  0.0 mm
23:54 61.2 °F /  16.2 °C 48.4 °F /  9.1 °C 30.1 in /  1018.2 hPa West 12.7 mph /  20.4 km/h 12.7 mph /  20.4 km/h 63 % 0 in /  0.0 mm
23:55 61 °F /  16.1 °C 48.4 °F /  9.1 °C 30.1 in /  1018.2 hPa WNW 12.7 mph /  20.4 km/h 12.7 mph /  20.4 km/h 63 % 0 in /  0.0 mm
23:59 60.6 °F /  15.9 °C 48.4 °F /  9.1 °C 30.1 in /  1018.2 hPa West 12.7 mph /  20.4 km/h 12.7 mph /  20.4 km/h 64 % 0 in /  0.0 mm
Puerto Banus, Marbella
Elogios de Weather Underground - 2.25 mb

Guión original por  Jim McMurry - jmcmurry@mwt.net Adaptado para la plantilla por  Wim van der Kuil - Leuven-Template.eu

Usted encontrará nuestra información del tiempo también en:

Weather Underground

Iberian Peninsula Weather Network